PWSweather.com
Personal Weather Stations
Station Observations

GerenaES 41860

Lat: 37.530965, Lon: -6.150384

Elevation: 120

Station Type: Vantage VUE

http://meteogerena.blogspot.com.es/

High Low Average
Temperature 62.1°F16.7°F 47.1°F8.4°F 55.3°F12.9°F
Dew Point 26.9°F-2.8°F 19.8°F-6.8°F 23.7°F-4.6°F
Winds 8.0 mph SSW12.9 mph SSW Calm Calm 2.8 mph 4.5 mph
Wind Gusts 16.0 mph25.7 mph -- 6.1 mph9.8 mph
Humidity 39% 23% 30%
Pressure 29.74 in1007.10 in 29.62 in1003.00 in -
Precipitation 0.00 in0.00 in - -
Hour Temp Dew Point Humidity Winds Wind Gusts Pressure Precip Precip Rate Daily Precip Total
11:32 AM 51.3°F10.7°C 23.8°F-4.6°C 34% 8.0 mph S12.9 kmh S 13.0 mph20.9 kmh 29.74 in1007.1 mb 0.00 in0.0 mm 0.00 in0.0 mm 0.00 in0.0 mm
11:33 AM 51.4°F10.8°C 23.3°F-4.8°C 33% 8.0 mph SSW12.9 kmh SSW 15.0 mph24.1 kmh 29.74 in1007.1 mb 0.00 in0.0 mm 0.00 in0.0 mm 0.00 in0.0 mm
11:34 AM 51.4°F10.8°C 23.3°F-4.8°C 33% 8.0 mph SSW12.9 kmh SSW 15.0 mph24.1 kmh 29.74 in1007.1 mb 0.00 in0.0 mm 0.00 in0.0 mm 0.00 in0.0 mm
11:35 AM 51.4°F10.8°C 23.3°F-4.8°C 33% 8.0 mph SSW12.9 kmh SSW 15.0 mph24.1 kmh 29.74 in1007.1 mb 0.00 in0.0 mm 0.00 in0.0 mm 0.00 in0.0 mm
11:36 AM 51.4°F10.8°C 23.3°F-4.8°C 33% 8.0 mph SSW12.9 kmh SSW 15.0 mph24.1 kmh 29.74 in1007.1 mb 0.00 in0.0 mm 0.00 in0.0 mm 0.00 in0.0 mm
11:37 AM 51.4°F10.8°C 23.3°F-4.8°C 33% 8.0 mph SSW12.9 kmh SSW 15.0 mph24.1 kmh 29.74 in1007.1 mb 0.00 in0.0 mm 0.00 in0.0 mm 0.00 in0.0 mm
11:38 AM 51.4°F10.8°C 24.0°F-4.4°C 34% 8.0 mph SSW12.9 kmh SSW 15.0 mph24.1 kmh 29.74 in1007.1 mb 0.00 in0.0 mm 0.00 in0.0 mm 0.00 in0.0 mm
11:39 AM 51.4°F10.8°C 24.0°F-4.4°C 34% 8.0 mph SSW12.9 kmh SSW 15.0 mph24.1 kmh 29.74 in1007.1 mb 0.00 in0.0 mm 0.00 in0.0 mm 0.00 in0.0 mm
11:40 AM 51.6°F10.9°C 24.1°F-4.4°C 34% 8.0 mph SSW12.9 kmh SSW 15.0 mph24.1 kmh 29.74 in1007.1 mb 0.00 in0.0 mm 0.00 in0.0 mm 0.00 in0.0 mm
11:41 AM 51.6°F10.9°C 23.4°F-4.8°C 33% 8.0 mph SSW12.9 kmh SSW 15.0 mph24.1 kmh 29.74 in1007.1 mb 0.00 in0.0 mm 0.00 in0.0 mm 0.00 in0.0 mm
11:42 AM 51.8°F11.0°C 23.6°F-4.7°C 33% 8.0 mph SSW12.9 kmh SSW 15.0 mph24.1 kmh 29.74 in1007.1 mb 0.00 in0.0 mm 0.00 in0.0 mm 0.00 in0.0 mm
11:43 AM 51.8°F11.0°C 22.8°F-5.1°C 32% 8.0 mph SSW12.9 kmh SSW 13.0 mph20.9 kmh 29.74 in1007.1 mb 0.00 in0.0 mm 0.00 in0.0 mm 0.00 in0.0 mm
11:44 AM 52.0°F11.1°C 23.0°F-5.0°C 32% 8.0 mph SSW12.9 kmh SSW 13.0 mph20.9 kmh 29.74 in1007.1 mb 0.00 in0.0 mm 0.00 in0.0 mm 0.00 in0.0 mm
11:45 AM 52.0°F11.1°C 23.0°F-5.0°C 32% 8.0 mph SSW12.9 kmh SSW 13.0 mph20.9 kmh 29.74 in1007.1 mb 0.00 in0.0 mm 0.00 in0.0 mm 0.00 in0.0 mm
11:46 AM 52.2°F11.2°C 22.4°F-5.3°C 31% 8.0 mph SSW12.9 kmh SSW 13.0 mph20.9 kmh 29.74 in1007.1 mb 0.00 in0.0 mm 0.00 in0.0 mm 0.00 in0.0 mm
11:47 AM 52.2°F11.2°C 22.4°F-5.3°C 31% 8.0 mph SSW12.9 kmh SSW 13.0 mph20.9 kmh 29.74 in1007.1 mb 0.00 in0.0 mm 0.00 in0.0 mm 0.00 in0.0 mm
11:48 AM 52.2°F11.2°C 22.4°F-5.3°C 31% 7.0 mph SSW11.3 kmh SSW 14.0 mph22.5 kmh 29.74 in1007.1 mb 0.00 in0.0 mm 0.00 in0.0 mm 0.00 in0.0 mm
11:49 AM 52.2°F11.2°C 22.4°F-5.3°C 31% 7.0 mph SSW11.3 kmh SSW 14.0 mph22.5 kmh 29.74 in1007.1 mb 0.00 in0.0 mm 0.00 in0.0 mm 0.00 in0.0 mm
11:50 AM 52.2°F11.2°C 22.4°F-5.3°C 31% 7.0 mph SSW11.3 kmh SSW 14.0 mph22.5 kmh 29.74 in1007.1 mb 0.00 in0.0 mm 0.00 in0.0 mm 0.00 in0.0 mm
11:51 AM 52.2°F11.2°C 23.2°F-4.9°C 32% 7.0 mph SSW11.3 kmh SSW 14.0 mph22.5 kmh 29.74 in1007.1 mb 0.00 in0.0 mm 0.00 in0.0 mm 0.00 in0.0 mm
11:52 AM 52.2°F11.2°C 22.4°F-5.3°C 31% 7.0 mph SSW11.3 kmh SSW 15.0 mph24.1 kmh 29.73 in1006.8 mb 0.00 in0.0 mm 0.00 in0.0 mm 0.00 in0.0 mm
11:53 AM 52.2°F11.2°C 22.4°F-5.3°C 31% 7.0 mph SSW11.3 kmh SSW 16.0 mph25.7 kmh 29.74 in1007.1 mb 0.00 in0.0 mm 0.00 in0.0 mm 0.00 in0.0 mm
11:54 AM 52.2°F11.2°C 23.2°F-4.9°C 32% 8.0 mph SSW12.9 kmh SSW 16.0 mph25.7 kmh 29.73 in1006.8 mb 0.00 in0.0 mm 0.00 in0.0 mm 0.00 in0.0 mm
11:55 AM 52.3°F11.3°C 23.3°F-4.8°C 32% 8.0 mph SSW12.9 kmh SSW 16.0 mph25.7 kmh 29.74 in1007.1 mb 0.00 in0.0 mm 0.00 in0.0 mm 0.00 in0.0 mm
11:56 AM 52.5°F11.4°C 23.5°F-4.7°C 32% 8.0 mph SSW12.9 kmh SSW 16.0 mph25.7 kmh 29.74 in1007.1 mb 0.00 in0.0 mm 0.00 in0.0 mm 0.00 in0.0 mm
11:57 AM 52.7°F11.5°C 23.6°F-4.7°C 32% 8.0 mph SSW12.9 kmh SSW 16.0 mph25.7 kmh 29.74 in1007.1 mb 0.00 in0.0 mm 0.00 in0.0 mm 0.00 in0.0 mm
11:58 AM 52.9°F11.6°C 23.8°F-4.6°C 32% 8.0 mph SSW12.9 kmh SSW 16.0 mph25.7 kmh 29.74 in1007.1 mb 0.00 in0.0 mm 0.00 in0.0 mm 0.00 in0.0 mm
11:59 AM 53.1°F11.7°C 23.2°F-4.9°C 31% 8.0 mph SSW12.9 kmh SSW 16.0 mph25.7 kmh 29.73 in1006.8 mb 0.00 in0.0 mm 0.00 in0.0 mm 0.00 in0.0 mm
12:00 PM 53.1°F11.7°C 23.2°F-4.9°C 31% 8.0 mph SSW12.9 kmh SSW 16.0 mph25.7 kmh 29.74 in1007.1 mb 0.00 in0.0 mm 0.00 in0.0 mm 0.00 in0.0 mm
12:01 PM 53.2°F11.8°C 23.3°F-4.8°C 31% 8.0 mph SSW12.9 kmh SSW 16.0 mph25.7 kmh 29.74 in1007.1 mb 0.00 in0.0 mm 0.00 in0.0 mm 0.00 in0.0 mm
12:02 PM 53.2°F11.8°C 23.3°F-4.8°C 31% 8.0 mph SSW12.9 kmh SSW 16.0 mph25.7 kmh 29.74 in1007.1 mb 0.00 in0.0 mm 0.00 in0.0 mm 0.00 in0.0 mm
12:03 PM 53.2°F11.8°C 23.3°F-4.8°C 31% 8.0 mph SSW12.9 kmh SSW 13.0 mph20.9 kmh 29.74 in1007.1 mb 0.00 in0.0 mm 0.00 in0.0 mm 0.00 in0.0 mm
12:04 PM 53.4°F11.9°C 23.5°F-4.7°C 31% 8.0 mph SSW12.9 kmh SSW 13.0 mph20.9 kmh 29.74 in1007.1 mb 0.00 in0.0 mm 0.00 in0.0 mm 0.00 in0.0 mm
12:05 PM 53.4°F11.9°C 23.5°F-4.7°C 31% 7.0 mph SSW11.3 kmh SSW 13.0 mph20.9 kmh 29.74 in1007.1 mb 0.00 in0.0 mm 0.00 in0.0 mm 0.00 in0.0 mm
12:06 PM 53.6°F12.0°C 22.9°F-5.1°C 30% 7.0 mph SSW11.3 kmh SSW 13.0 mph20.9 kmh 29.74 in1007.1 mb 0.00 in0.0 mm 0.00 in0.0 mm 0.00 in0.0 mm
12:07 PM 53.8°F12.1°C 22.2°F-5.4°C 29% 7.0 mph SSW11.3 kmh SSW 13.0 mph20.9 kmh 29.73 in1006.8 mb 0.00 in0.0 mm 0.00 in0.0 mm 0.00 in0.0 mm
12:08 PM 53.8°F12.1°C 22.2°F-5.4°C 29% 7.0 mph SSW11.3 kmh SSW 16.0 mph25.7 kmh 29.73 in1006.8 mb 0.00 in0.0 mm 0.00 in0.0 mm 0.00 in0.0 mm
12:09 PM 53.8°F12.1°C 22.2°F-5.4°C 29% 7.0 mph SSW11.3 kmh SSW 16.0 mph25.7 kmh 29.74 in1007.1 mb 0.00 in0.0 mm 0.00 in0.0 mm 0.00 in0.0 mm
12:10 PM 53.8°F12.1°C 22.2°F-5.4°C 29% 7.0 mph SSW11.3 kmh SSW 16.0 mph25.7 kmh 29.73 in1006.8 mb 0.00 in0.0 mm 0.00 in0.0 mm 0.00 in0.0 mm
12:11 PM 53.8°F12.1°C 22.2°F-5.4°C 29% 7.0 mph SSW11.3 kmh SSW 16.0 mph25.7 kmh 29.73 in1006.8 mb 0.00 in0.0 mm 0.00 in0.0 mm 0.00 in0.0 mm
12:12 PM 53.8°F12.1°C 21.4°F-5.9°C 28% 7.0 mph SSW11.3 kmh SSW 16.0 mph25.7 kmh 29.73 in1006.8 mb 0.00 in0.0 mm 0.00 in0.0 mm 0.00 in0.0 mm
12:13 PM 53.8°F12.1°C 22.2°F-5.4°C 29% 7.0 mph SSW11.3 kmh SSW 16.0 mph25.7 kmh 29.73 in1006.8 mb 0.00 in0.0 mm 0.00 in0.0 mm 0.00 in0.0 mm
12:14 PM 53.8°F12.1°C 22.2°F-5.4°C 29% 7.0 mph SSW11.3 kmh SSW 16.0 mph25.7 kmh 29.73 in1006.8 mb 0.00 in0.0 mm 0.00 in0.0 mm 0.00 in0.0 mm
12:15 PM 53.8°F12.1°C 22.2°F-5.4°C 29% 7.0 mph SSW11.3 kmh SSW 16.0 mph25.7 kmh 29.73 in1006.8 mb 0.00 in0.0 mm 0.00 in0.0 mm 0.00 in0.0 mm
12:16 PM 53.8°F12.1°C 22.2°F-5.4°C 29% 7.0 mph SSW11.3 kmh SSW 16.0 mph25.7 kmh 29.73 in1006.8 mb 0.00 in0.0 mm 0.00 in0.0 mm 0.00 in0.0 mm
12:17 PM 53.8°F12.1°C 22.2°F-5.4°C 29% 8.0 mph SSW12.9 kmh SSW 16.0 mph25.7 kmh 29.73 in1006.8 mb 0.00 in0.0 mm 0.00 in0.0 mm 0.00 in0.0 mm
12:18 PM 53.8°F12.1°C 22.2°F-5.4°C 29% 8.0 mph SSW12.9 kmh SSW 14.0 mph22.5 kmh 29.73 in1006.8 mb 0.00 in0.0 mm 0.00 in0.0 mm 0.00 in0.0 mm
12:19 PM 54.0°F12.2°C 22.4°F-5.3°C 29% 8.0 mph SSW12.9 kmh SSW 14.0 mph22.5 kmh 29.73 in1006.8 mb 0.00 in0.0 mm 0.00 in0.0 mm 0.00 in0.0 mm
12:20 PM 54.0°F12.2°C 21.6°F-5.8°C 28% 8.0 mph SSW12.9 kmh SSW 14.0 mph22.5 kmh 29.73 in1006.8 mb 0.00 in0.0 mm 0.00 in0.0 mm 0.00 in0.0 mm
12:21 PM 54.1°F12.3°C 21.7°F-5.7°C 28% 8.0 mph SSW12.9 kmh SSW 14.0 mph22.5 kmh 29.73 in1006.8 mb 0.00 in0.0 mm 0.00 in0.0 mm 0.00 in0.0 mm
12:22 PM 54.1°F12.3°C 21.7°F-5.7°C 28% 8.0 mph SSW12.9 kmh SSW 14.0 mph22.5 kmh 29.73 in1006.8 mb 0.00 in0.0 mm 0.00 in0.0 mm 0.00 in0.0 mm
12:23 PM 54.3°F12.4°C 21.0°F-6.1°C 27% 8.0 mph SSW12.9 kmh SSW 14.0 mph22.5 kmh 29.73 in1006.8 mb 0.00 in0.0 mm 0.00 in0.0 mm 0.00 in0.0 mm
12:24 PM 54.3°F12.4°C 21.9°F-5.6°C 28% 8.0 mph SSW12.9 kmh SSW 14.0 mph22.5 kmh 29.73 in1006.8 mb 0.00 in0.0 mm 0.00 in0.0 mm 0.00 in0.0 mm
12:25 PM 54.7°F12.6°C 21.3°F-5.9°C 27% 8.0 mph SSW12.9 kmh SSW 14.0 mph22.5 kmh 29.73 in1006.8 mb 0.00 in0.0 mm 0.00 in0.0 mm 0.00 in0.0 mm
12:26 PM 54.9°F12.7°C 21.5°F-5.8°C 27% 8.0 mph SSW12.9 kmh SSW 14.0 mph22.5 kmh 29.73 in1006.8 mb 0.00 in0.0 mm 0.00 in0.0 mm 0.00 in0.0 mm
12:27 PM 54.9°F12.7°C 21.5°F-5.8°C 27% 8.0 mph SSW12.9 kmh SSW 14.0 mph22.5 kmh 29.73 in1006.8 mb 0.00 in0.0 mm 0.00 in0.0 mm 0.00 in0.0 mm
12:28 PM 54.9°F12.7°C 21.5°F-5.8°C 27% 8.0 mph SSW12.9 kmh SSW 14.0 mph22.5 kmh 29.73 in1006.8 mb 0.00 in0.0 mm 0.00 in0.0 mm 0.00 in0.0 mm
12:29 PM 54.9°F12.7°C 20.6°F-6.3°C 26% 7.0 mph SSW11.3 kmh SSW 14.0 mph22.5 kmh 29.73 in1006.8 mb 0.00 in0.0 mm 0.00 in0.0 mm 0.00 in0.0 mm
12:30 PM 55.0°F12.8°C 20.7°F-6.3°C 26% 7.0 mph SSW11.3 kmh SSW 14.0 mph22.5 kmh 29.73 in1006.8 mb 0.00 in0.0 mm 0.00 in0.0 mm 0.00 in0.0 mm
12:31 PM 55.0°F12.8°C 20.7°F-6.3°C 26% 7.0 mph SSW11.3 kmh SSW 13.0 mph20.9 kmh 29.73 in1006.8 mb 0.00 in0.0 mm 0.00 in0.0 mm 0.00 in0.0 mm
12:32 PM 55.0°F12.8°C 20.7°F-6.3°C 26% 7.0 mph SSW11.3 kmh SSW 13.0 mph20.9 kmh 29.73 in1006.8 mb 0.00 in0.0 mm 0.00 in0.0 mm 0.00 in0.0 mm
12:33 PM 55.0°F12.8°C 20.7°F-6.3°C 26% 7.0 mph SSW11.3 kmh SSW 13.0 mph20.9 kmh 29.73 in1006.8 mb 0.00 in0.0 mm 0.00 in0.0 mm 0.00 in0.0 mm
12:34 PM 55.0°F12.8°C 20.7°F-6.3°C 26% 6.0 mph SSW9.7 kmh SSW 15.0 mph24.1 kmh 29.73 in1006.8 mb 0.00 in0.0 mm 0.00 in0.0 mm 0.00 in0.0 mm
12:35 PM 55.0°F12.8°C 19.8°F-6.8°C 25% 6.0 mph SSW9.7 kmh SSW 15.0 mph24.1 kmh 29.73 in1006.8 mb 0.00 in0.0 mm 0.00 in0.0 mm 0.00 in0.0 mm
12:36 PM 55.0°F12.8°C 20.7°F-6.3°C 26% 6.0 mph SSW9.7 kmh SSW 15.0 mph24.1 kmh 29.73 in1006.8 mb 0.00 in0.0 mm 0.00 in0.0 mm 0.00 in0.0 mm
12:37 PM 55.0°F12.8°C 19.8°F-6.8°C 25% 6.0 mph SSW9.7 kmh SSW 16.0 mph25.7 kmh 29.73 in1006.8 mb 0.00 in0.0 mm 0.00 in0.0 mm 0.00 in0.0 mm
12:38 PM 55.0°F12.8°C 19.8°F-6.8°C 25% 6.0 mph SSW9.7 kmh SSW 16.0 mph25.7 kmh 29.73 in1006.8 mb 0.00 in0.0 mm 0.00 in0.0 mm 0.00 in0.0 mm
12:39 PM 55.0°F12.8°C 19.8°F-6.8°C 25% 6.0 mph SSW9.7 kmh SSW 16.0 mph25.7 kmh 29.73 in1006.8 mb 0.00 in0.0 mm 0.00 in0.0 mm 0.00 in0.0 mm
12:40 PM 55.0°F12.8°C 19.8°F-6.8°C 25% 7.0 mph SSW11.3 kmh SSW 16.0 mph25.7 kmh 29.73 in1006.8 mb 0.00 in0.0 mm 0.00 in0.0 mm 0.00 in0.0 mm
12:41 PM 55.0°F12.8°C 19.8°F-6.8°C 25% 7.0 mph SSW11.3 kmh SSW 16.0 mph25.7 kmh 29.73 in1006.8 mb 0.00 in0.0 mm 0.00 in0.0 mm 0.00 in0.0 mm
12:42 PM 55.0°F12.8°C 19.8°F-6.8°C 25% 7.0 mph SSW11.3 kmh SSW 16.0 mph25.7 kmh 29.73 in1006.8 mb 0.00 in0.0 mm 0.00 in0.0 mm 0.00 in0.0 mm
12:43 PM 55.0°F12.8°C 19.8°F-6.8°C 25% 7.0 mph SSW11.3 kmh SSW 16.0 mph25.7 kmh 29.73 in1006.8 mb 0.00 in0.0 mm 0.00 in0.0 mm 0.00 in0.0 mm
12:44 PM 55.2°F12.9°C 20.0°F-6.7°C 25% 7.0 mph SSW11.3 kmh SSW 16.0 mph25.7 kmh 29.73 in1006.8 mb 0.00 in0.0 mm 0.00 in0.0 mm 0.00 in0.0 mm
12:45 PM 55.2°F12.9°C 20.9°F-6.2°C 26% 7.0 mph SSW11.3 kmh SSW 16.0 mph25.7 kmh 29.73 in1006.8 mb 0.00 in0.0 mm 0.00 in0.0 mm 0.00 in0.0 mm
12:46 PM 55.4°F13.0°C 20.1°F-6.6°C 25% 7.0 mph SSW11.3 kmh SSW 16.0 mph25.7 kmh 29.73 in1006.8 mb 0.00 in0.0 mm 0.00 in0.0 mm 0.00 in0.0 mm
12:47 PM 55.4°F13.0°C 21.0°F-6.1°C 26% 7.0 mph SSW11.3 kmh SSW 14.0 mph22.5 kmh 29.73 in1006.8 mb 0.00 in0.0 mm 0.00 in0.0 mm 0.00 in0.0 mm
12:48 PM 55.6°F13.1°C 20.3°F-6.5°C 25% 7.0 mph SSW11.3 kmh SSW 15.0 mph24.1 kmh 29.73 in1006.8 mb 0.00 in0.0 mm 0.00 in0.0 mm 0.00 in0.0 mm
12:49 PM 55.4°F13.0°C 20.1°F-6.6°C 25% 7.0 mph SSW11.3 kmh SSW 15.0 mph24.1 kmh 29.73 in1006.8 mb 0.00 in0.0 mm 0.00 in0.0 mm 0.00 in0.0 mm
12:50 PM 55.2°F12.9°C 20.0°F-6.7°C 25% 7.0 mph SSW11.3 kmh SSW 15.0 mph24.1 kmh 29.73 in1006.8 mb 0.00 in0.0 mm 0.00 in0.0 mm 0.00 in0.0 mm
12:51 PM 55.2°F12.9°C 20.0°F-6.7°C 25% 7.0 mph SSW11.3 kmh SSW 15.0 mph24.1 kmh 29.73 in1006.8 mb 0.00 in0.0 mm 0.00 in0.0 mm 0.00 in0.0 mm
12:52 PM 55.2°F12.9°C 20.9°F-6.2°C 26% 7.0 mph SSW11.3 kmh SSW 15.0 mph24.1 kmh 29.73 in1006.8 mb 0.00 in0.0 mm 0.00 in0.0 mm 0.00 in0.0 mm
12:53 PM 55.4°F13.0°C 21.0°F-6.1°C 26% 7.0 mph SSW11.3 kmh SSW 15.0 mph24.1 kmh 29.73 in1006.8 mb 0.00 in0.0 mm 0.00 in0.0 mm 0.00 in0.0 mm
12:54 PM 55.4°F13.0°C 21.0°F-6.1°C 26% 7.0 mph SSW11.3 kmh SSW 15.0 mph24.1 kmh 29.73 in1006.8 mb 0.00 in0.0 mm 0.00 in0.0 mm 0.00 in0.0 mm
12:55 PM 55.6°F13.1°C 21.2°F-6.0°C 26% 7.0 mph SSW11.3 kmh SSW 15.0 mph24.1 kmh 29.72 in1006.4 mb 0.00 in0.0 mm 0.00 in0.0 mm 0.00 in0.0 mm
12:56 PM 55.6°F13.1°C 21.2°F-6.0°C 26% 7.0 mph SSW11.3 kmh SSW 15.0 mph24.1 kmh 29.72 in1006.4 mb 0.00 in0.0 mm 0.00 in0.0 mm 0.00 in0.0 mm
12:57 PM 55.8°F13.2°C 21.3°F-5.9°C 26% 7.0 mph SSW11.3 kmh SSW 15.0 mph24.1 kmh 29.72 in1006.4 mb 0.00 in0.0 mm 0.00 in0.0 mm 0.00 in0.0 mm
12:58 PM 55.9°F13.3°C 22.4°F-5.3°C 27% 7.0 mph SSW11.3 kmh SSW 14.0 mph22.5 kmh 29.72 in1006.4 mb 0.00 in0.0 mm 0.00 in0.0 mm 0.00 in0.0 mm
12:59 PM 55.9°F13.3°C 21.5°F-5.8°C 26% 7.0 mph SSW11.3 kmh SSW 13.0 mph20.9 kmh 29.72 in1006.4 mb 0.00 in0.0 mm 0.00 in0.0 mm 0.00 in0.0 mm
01:00 PM 55.9°F13.3°C 21.5°F-5.8°C 26% 7.0 mph SSW11.3 kmh SSW 13.0 mph20.9 kmh 29.72 in1006.4 mb 0.00 in0.0 mm 0.00 in0.0 mm 0.00 in0.0 mm
01:01 PM 55.9°F13.3°C 20.6°F-6.3°C 25% 7.0 mph SSW11.3 kmh SSW 14.0 mph22.5 kmh 29.72 in1006.4 mb 0.00 in0.0 mm 0.00 in0.0 mm 0.00 in0.0 mm
01:02 PM 55.9°F13.3°C 21.5°F-5.8°C 26% 7.0 mph SSW11.3 kmh SSW 14.0 mph22.5 kmh 29.72 in1006.4 mb 0.00 in0.0 mm 0.00 in0.0 mm 0.00 in0.0 mm
01:03 PM 55.9°F13.3°C 21.5°F-5.8°C 26% 7.0 mph SSW11.3 kmh SSW 14.0 mph22.5 kmh 29.72 in1006.4 mb 0.00 in0.0 mm 0.00 in0.0 mm 0.00 in0.0 mm
01:04 PM 55.9°F13.3°C 21.5°F-5.8°C 26% 7.0 mph SSW11.3 kmh SSW 14.0 mph22.5 kmh 29.72 in1006.4 mb 0.00 in0.0 mm 0.00 in0.0 mm 0.00 in0.0 mm
01:05 PM 55.9°F13.3°C 21.5°F-5.8°C 26% 7.0 mph SSW11.3 kmh SSW 14.0 mph22.5 kmh 29.72 in1006.4 mb 0.00 in0.0 mm 0.00 in0.0 mm 0.00 in0.0 mm
01:06 PM 56.1°F13.4°C 22.6°F-5.2°C 27% 7.0 mph SSW11.3 kmh SSW 14.0 mph22.5 kmh 29.72 in1006.4 mb 0.00 in0.0 mm 0.00 in0.0 mm 0.00 in0.0 mm
01:07 PM 56.5°F13.6°C 22.9°F-5.1°C 27% 7.0 mph SSW11.3 kmh SSW 14.0 mph22.5 kmh 29.72 in1006.4 mb 0.00 in0.0 mm 0.00 in0.0 mm 0.00 in0.0 mm
01:08 PM 56.5°F13.6°C 22.0°F-5.6°C 26% 7.0 mph SSW11.3 kmh SSW 14.0 mph22.5 kmh 29.71 in1006.1 mb 0.00 in0.0 mm 0.00 in0.0 mm 0.00 in0.0 mm
01:09 PM 56.5°F13.6°C 22.0°F-5.6°C 26% 7.0 mph SSW11.3 kmh SSW 14.0 mph22.5 kmh 29.71 in1006.1 mb 0.00 in0.0 mm 0.00 in0.0 mm 0.00 in0.0 mm
01:10 PM 56.5°F13.6°C 22.0°F-5.6°C 26% 7.0 mph SSW11.3 kmh SSW 14.0 mph22.5 kmh 29.71 in1006.1 mb 0.00 in0.0 mm 0.00 in0.0 mm 0.00 in0.0 mm
01:11 PM 56.5°F13.6°C 22.0°F-5.6°C 26% 7.0 mph SSW11.3 kmh SSW 14.0 mph22.5 kmh 29.71 in1006.1 mb 0.00 in0.0 mm 0.00 in0.0 mm 0.00 in0.0 mm
01:12 PM 56.5°F13.6°C 22.0°F-5.6°C 26% 7.0 mph SSW11.3 kmh SSW 13.0 mph20.9 kmh 29.71 in1006.1 mb 0.00 in0.0 mm 0.00 in0.0 mm 0.00 in0.0 mm
01:13 PM 56.5°F13.6°C 22.0°F-5.6°C 26% 7.0 mph SSW11.3 kmh SSW 13.0 mph20.9 kmh 29.71 in1006.1 mb 0.00 in0.0 mm 0.00 in0.0 mm 0.00 in0.0 mm
01:14 PM 56.5°F13.6°C 22.0°F-5.6°C 26% 7.0 mph SSW11.3 kmh SSW 13.0 mph20.9 kmh 29.71 in1006.1 mb 0.00 in0.0 mm 0.00 in0.0 mm 0.00 in0.0 mm
01:15 PM 56.5°F13.6°C 22.0°F-5.6°C 26% 7.0 mph SSW11.3 kmh SSW 13.0 mph20.9 kmh 29.71 in1006.1 mb 0.00 in0.0 mm 0.00 in0.0 mm 0.00 in0.0 mm
01:16 PM 56.5°F13.6°C 22.0°F-5.6°C 26% 7.0 mph SSW11.3 kmh SSW 13.0 mph20.9 kmh 29.71 in1006.1 mb 0.00 in0.0 mm 0.00 in0.0 mm 0.00 in0.0 mm
01:17 PM 56.7°F13.7°C 22.1°F-5.5°C 26% 7.0 mph SSW11.3 kmh SSW 13.0 mph20.9 kmh 29.71 in1006.1 mb 0.00 in0.0 mm 0.00 in0.0 mm 0.00 in0.0 mm
01:18 PM 56.5°F13.6°C 22.0°F-5.6°C 26% 7.0 mph SSW11.3 kmh SSW 13.0 mph20.9 kmh 29.71 in1006.1 mb 0.00 in0.0 mm 0.00 in0.0 mm 0.00 in0.0 mm
01:19 PM 56.5°F13.6°C 22.0°F-5.6°C 26% 6.0 mph SSW9.7 kmh SSW 13.0 mph20.9 kmh 29.71 in1006.1 mb 0.00 in0.0 mm 0.00 in0.0 mm 0.00 in0.0 mm
01:20 PM 56.7°F13.7°C 22.1°F-5.5°C 26% 6.0 mph SSW9.7 kmh SSW 12.0 mph19.3 kmh 29.71 in1006.1 mb 0.00 in0.0 mm 0.00 in0.0 mm 0.00 in0.0 mm
01:21 PM 56.7°F13.7°C 22.1°F-5.5°C 26% 6.0 mph SSW9.7 kmh SSW 12.0 mph19.3 kmh 29.71 in1006.1 mb 0.00 in0.0 mm 0.00 in0.0 mm 0.00 in0.0 mm
01:22 PM 56.8°F13.8°C 22.3°F-5.4°C 26% 6.0 mph SSW9.7 kmh SSW 12.0 mph19.3 kmh 29.71 in1006.1 mb 0.00 in0.0 mm 0.00 in0.0 mm 0.00 in0.0 mm
01:23 PM 56.8°F13.8°C 22.3°F-5.4°C 26% 6.0 mph SSW9.7 kmh SSW 12.0 mph19.3 kmh 29.71 in1006.1 mb 0.00 in0.0 mm 0.00 in0.0 mm 0.00 in0.0 mm
01:24 PM 56.8°F13.8°C 21.3°F-5.9°C 25% 6.0 mph SSW9.7 kmh SSW 12.0 mph19.3 kmh 29.71 in1006.1 mb 0.00 in0.0 mm 0.00 in0.0 mm 0.00 in0.0 mm
01:25 PM 56.8°F13.8°C 21.3°F-5.9°C 25% 6.0 mph SSW9.7 kmh SSW 12.0 mph19.3 kmh 29.71 in1006.1 mb 0.00 in0.0 mm 0.00 in0.0 mm 0.00 in0.0 mm
01:26 PM 56.8°F13.8°C 22.3°F-5.4°C 26% 6.0 mph SSW9.7 kmh SSW 12.0 mph19.3 kmh 29.71 in1006.1 mb 0.00 in0.0 mm 0.00 in0.0 mm 0.00 in0.0 mm
01:27 PM 57.0°F13.9°C 22.4°F-5.3°C 26% 6.0 mph SW9.7 kmh SW 12.0 mph19.3 kmh 29.71 in1006.1 mb 0.00 in0.0 mm 0.00 in0.0 mm 0.00 in0.0 mm
01:28 PM 57.0°F13.9°C 22.4°F-5.3°C 26% 6.0 mph SW9.7 kmh SW 12.0 mph19.3 kmh 29.71 in1006.1 mb 0.00 in0.0 mm 0.00 in0.0 mm 0.00 in0.0 mm
01:29 PM 57.4°F14.1°C 23.6°F-4.7°C 27% 6.0 mph SW9.7 kmh SW 12.0 mph19.3 kmh 29.70 in1005.8 mb 0.00 in0.0 mm 0.00 in0.0 mm 0.00 in0.0 mm
01:30 PM 57.4°F14.1°C 22.7°F-5.2°C 26% 6.0 mph SW9.7 kmh SW 12.0 mph19.3 kmh 29.70 in1005.8 mb 0.00 in0.0 mm 0.00 in0.0 mm 0.00 in0.0 mm
01:31 PM 57.6°F14.2°C 22.0°F-5.6°C 25% 6.0 mph SSW9.7 kmh SSW 12.0 mph19.3 kmh 29.70 in1005.8 mb 0.00 in0.0 mm 0.00 in0.0 mm 0.00 in0.0 mm
01:32 PM 57.6°F14.2°C 22.9°F-5.1°C 26% 6.0 mph SSW9.7 kmh SSW 10.0 mph16.1 kmh 29.70 in1005.8 mb 0.00 in0.0 mm 0.00 in0.0 mm 0.00 in0.0 mm
01:33 PM 57.7°F14.3°C 23.0°F-5.0°C 26% 6.0 mph SW9.7 kmh SW 10.0 mph16.1 kmh 29.70 in1005.8 mb 0.00 in0.0 mm 0.00 in0.0 mm 0.00 in0.0 mm
01:34 PM 57.7°F14.3°C 22.1°F-5.5°C 25% 6.0 mph SSW9.7 kmh SSW 10.0 mph16.1 kmh 29.70 in1005.8 mb 0.00 in0.0 mm 0.00 in0.0 mm 0.00 in0.0 mm
01:35 PM 57.7°F14.3°C 23.0°F-5.0°C 26% 5.0 mph SSW8.0 kmh SSW 10.0 mph16.1 kmh 29.70 in1005.8 mb 0.00 in0.0 mm 0.00 in0.0 mm 0.00 in0.0 mm
01:36 PM 57.7°F14.3°C 23.0°F-5.0°C 26% 5.0 mph SSW8.0 kmh SSW 10.0 mph16.1 kmh 29.70 in1005.8 mb 0.00 in0.0 mm 0.00 in0.0 mm 0.00 in0.0 mm
01:37 PM 57.7°F14.3°C 23.0°F-5.0°C 26% 5.0 mph SSW8.0 kmh SSW 10.0 mph16.1 kmh 29.70 in1005.8 mb 0.00 in0.0 mm 0.00 in0.0 mm 0.00 in0.0 mm
01:38 PM 57.7°F14.3°C 22.1°F-5.5°C 25% 5.0 mph SSW8.0 kmh SSW 10.0 mph16.1 kmh 29.70 in1005.8 mb 0.00 in0.0 mm 0.00 in0.0 mm 0.00 in0.0 mm
01:39 PM 57.7°F14.3°C 23.0°F-5.0°C 26% 5.0 mph SSW8.0 kmh SSW 10.0 mph16.1 kmh 29.70 in1005.8 mb 0.00 in0.0 mm 0.00 in0.0 mm 0.00 in0.0 mm
01:40 PM 57.7°F14.3°C 23.0°F-5.0°C 26% 5.0 mph SW8.0 kmh SW 11.0 mph17.7 kmh 29.70 in1005.8 mb 0.00 in0.0 mm 0.00 in0.0 mm 0.00 in0.0 mm
01:41 PM 57.7°F14.3°C 23.0°F-5.0°C 26% 5.0 mph SW8.0 kmh SW 11.0 mph17.7 kmh 29.70 in1005.8 mb 0.00 in0.0 mm 0.00 in0.0 mm 0.00 in0.0 mm
01:42 PM 57.7°F14.3°C 23.0°F-5.0°C 26% 5.0 mph SW8.0 kmh SW 11.0 mph17.7 kmh 29.70 in1005.8 mb 0.00 in0.0 mm 0.00 in0.0 mm 0.00 in0.0 mm
01:43 PM 57.7°F14.3°C 23.0°F-5.0°C 26% 5.0 mph SW8.0 kmh SW 11.0 mph17.7 kmh 29.70 in1005.8 mb 0.00 in0.0 mm 0.00 in0.0 mm 0.00 in0.0 mm
01:44 PM 57.7°F14.3°C 23.0°F-5.0°C 26% 5.0 mph SW8.0 kmh SW 11.0 mph17.7 kmh 29.70 in1005.8 mb 0.00 in0.0 mm 0.00 in0.0 mm 0.00 in0.0 mm
01:45 PM 57.9°F14.4°C 23.2°F-4.9°C 26% 5.0 mph SSW8.0 kmh SSW 12.0 mph19.3 kmh 29.70 in1005.8 mb 0.00 in0.0 mm 0.00 in0.0 mm 0.00 in0.0 mm
01:46 PM 57.9°F14.4°C 23.2°F-4.9°C 26% 5.0 mph SSW8.0 kmh SSW 12.0 mph19.3 kmh 29.70 in1005.8 mb 0.00 in0.0 mm 0.00 in0.0 mm 0.00 in0.0 mm
01:47 PM 57.9°F14.4°C 22.3°F-5.4°C 25% 5.0 mph SSW8.0 kmh SSW 12.0 mph19.3 kmh 29.70 in1005.8 mb 0.00 in0.0 mm 0.00 in0.0 mm 0.00 in0.0 mm
01:48 PM 57.9°F14.4°C 23.2°F-4.9°C 26% 5.0 mph SSW8.0 kmh SSW 12.0 mph19.3 kmh 29.70 in1005.8 mb 0.00 in0.0 mm 0.00 in0.0 mm 0.00 in0.0 mm
01:49 PM 57.9°F14.4°C 23.2°F-4.9°C 26% 5.0 mph SSW8.0 kmh SSW 12.0 mph19.3 kmh 29.69 in1005.4 mb 0.00 in0.0 mm 0.00 in0.0 mm 0.00 in0.0 mm
01:50 PM 57.9°F14.4°C 22.3°F-5.4°C 25% 5.0 mph SSW8.0 kmh SSW 12.0 mph19.3 kmh 29.69 in1005.4 mb 0.00 in0.0 mm 0.00 in0.0 mm 0.00 in0.0 mm
01:51 PM 58.1°F14.5°C 22.4°F-5.3°C 25% 6.0 mph SSW9.7 kmh SSW 12.0 mph19.3 kmh 29.70 in1005.8 mb 0.00 in0.0 mm 0.00 in0.0 mm 0.00 in0.0 mm
01:52 PM 58.3°F14.6°C 22.6°F-5.2°C 25% 6.0 mph SSW9.7 kmh SSW 12.0 mph19.3 kmh 29.69 in1005.4 mb 0.00 in0.0 mm 0.00 in0.0 mm 0.00 in0.0 mm
01:53 PM 58.1°F14.5°C 22.4°F-5.3°C 25% 6.0 mph SSW9.7 kmh SSW 12.0 mph19.3 kmh 29.69 in1005.4 mb 0.00 in0.0 mm 0.00 in0.0 mm 0.00 in0.0 mm
01:54 PM 58.1°F14.5°C 22.4°F-5.3°C 25% 6.0 mph SSW9.7 kmh SSW 12.0 mph19.3 kmh 29.69 in1005.4 mb 0.00 in0.0 mm 0.00 in0.0 mm 0.00 in0.0 mm
01:55 PM 58.1°F14.5°C 21.4°F-5.9°C 24% 6.0 mph SSW9.7 kmh SSW 10.0 mph16.1 kmh 29.70 in1005.8 mb 0.00 in0.0 mm 0.00 in0.0 mm 0.00 in0.0 mm
01:56 PM 58.3°F14.6°C 22.6°F-5.2°C 25% 6.0 mph SSW9.7 kmh SSW 10.0 mph16.1 kmh 29.69 in1005.4 mb 0.00 in0.0 mm 0.00 in0.0 mm 0.00 in0.0 mm
01:57 PM 58.3°F14.6°C 22.6°F-5.2°C 25% 6.0 mph SSW9.7 kmh SSW 10.0 mph16.1 kmh 29.69 in1005.4 mb 0.00 in0.0 mm 0.00 in0.0 mm 0.00 in0.0 mm
01:58 PM 58.5°F14.7°C 22.7°F-5.2°C 25% 6.0 mph SSW9.7 kmh SSW 10.0 mph16.1 kmh 29.69 in1005.4 mb 0.00 in0.0 mm 0.00 in0.0 mm 0.00 in0.0 mm
01:59 PM 58.5°F14.7°C 21.8°F-5.7°C 24% 6.0 mph SSW9.7 kmh SSW 11.0 mph17.7 kmh 29.70 in1005.8 mb 0.00 in0.0 mm 0.00 in0.0 mm 0.00 in0.0 mm
02:00 PM 58.5°F14.7°C 22.7°F-5.2°C 25% 6.0 mph SSW9.7 kmh SSW 11.0 mph17.7 kmh 29.69 in1005.4 mb 0.00 in0.0 mm 0.00 in0.0 mm 0.00 in0.0 mm
02:01 PM 58.5°F14.7°C 21.8°F-5.7°C 24% 6.0 mph SSW9.7 kmh SSW 11.0 mph17.7 kmh 29.69 in1005.4 mb 0.00 in0.0 mm 0.00 in0.0 mm 0.00 in0.0 mm
02:02 PM 58.5°F14.7°C 22.7°F-5.2°C 25% 6.0 mph SSW9.7 kmh SSW 11.0 mph17.7 kmh 29.69 in1005.4 mb 0.00 in0.0 mm 0.00 in0.0 mm 0.00 in0.0 mm
02:03 PM 58.5°F14.7°C 22.7°F-5.2°C 25% 6.0 mph SSW9.7 kmh SSW 11.0 mph17.7 kmh 29.69 in1005.4 mb 0.00 in0.0 mm 0.00 in0.0 mm 0.00 in0.0 mm
02:04 PM 58.6°F14.8°C 22.9°F-5.1°C 25% 6.0 mph SSW9.7 kmh SSW 11.0 mph17.7 kmh 29.69 in1005.4 mb 0.00 in0.0 mm 0.00 in0.0 mm 0.00 in0.0 mm
02:05 PM 58.6°F14.8°C 22.9°F-5.1°C 25% 5.0 mph SSW8.0 kmh SSW 11.0 mph17.7 kmh 29.69 in1005.4 mb 0.00 in0.0 mm 0.00 in0.0 mm 0.00 in0.0 mm
02:06 PM 58.8°F14.9°C 23.0°F-5.0°C 25% 5.0 mph SSW8.0 kmh SSW 11.0 mph17.7 kmh 29.69 in1005.4 mb 0.00 in0.0 mm 0.00 in0.0 mm 0.00 in0.0 mm
02:07 PM 58.8°F14.9°C 23.0°F-5.0°C 25% 6.0 mph SSW9.7 kmh SSW 11.0 mph17.7 kmh 29.69 in1005.4 mb 0.00 in0.0 mm 0.00 in0.0 mm 0.00 in0.0 mm
02:08 PM 58.8°F14.9°C 22.1°F-5.5°C 24% 6.0 mph SSW9.7 kmh SSW 13.0 mph20.9 kmh 29.69 in1005.4 mb 0.00 in0.0 mm 0.00 in0.0 mm 0.00 in0.0 mm
02:09 PM 58.6°F14.8°C 21.9°F-5.6°C 24% 6.0 mph SSW9.7 kmh SSW 13.0 mph20.9 kmh 29.69 in1005.4 mb 0.00 in0.0 mm 0.00 in0.0 mm 0.00 in0.0 mm
02:10 PM 58.6°F14.8°C 21.9°F-5.6°C 24% 6.0 mph SSW9.7 kmh SSW 13.0 mph20.9 kmh 29.69 in1005.4 mb 0.00 in0.0 mm 0.00 in0.0 mm 0.00 in0.0 mm
02:11 PM 58.8°F14.9°C 22.1°F-5.5°C 24% 5.0 mph SSW8.0 kmh SSW 13.0 mph20.9 kmh 29.69 in1005.4 mb 0.00 in0.0 mm 0.00 in0.0 mm 0.00 in0.0 mm
02:12 PM 58.8°F14.9°C 22.1°F-5.5°C 24% 5.0 mph SSW8.0 kmh SSW 13.0 mph20.9 kmh 29.69 in1005.4 mb 0.00 in0.0 mm 0.00 in0.0 mm 0.00 in0.0 mm
02:13 PM 58.8°F14.9°C 22.1°F-5.5°C 24% 5.0 mph SSW8.0 kmh SSW 13.0 mph20.9 kmh 29.69 in1005.4 mb 0.00 in0.0 mm 0.00 in0.0 mm 0.00 in0.0 mm
02:14 PM 58.8°F14.9°C 22.1°F-5.5°C 24% 5.0 mph SSW8.0 kmh SSW 13.0 mph20.9 kmh 29.69 in1005.4 mb 0.00 in0.0 mm 0.00 in0.0 mm 0.00 in0.0 mm
02:15 PM 59.0°F15.0°C 22.2°F-5.4°C 24% 5.0 mph SSW8.0 kmh SSW 13.0 mph20.9 kmh 29.69 in1005.4 mb 0.00 in0.0 mm 0.00 in0.0 mm 0.00 in0.0 mm
02:16 PM 59.0°F15.0°C 23.2°F-4.9°C 25% 5.0 mph SSW8.0 kmh SSW 13.0 mph20.9 kmh 29.68 in1005.1 mb 0.00 in0.0 mm 0.00 in0.0 mm 0.00 in0.0 mm
02:17 PM 59.0°F15.0°C 22.2°F-5.4°C 24% 5.0 mph SSW8.0 kmh SSW 13.0 mph20.9 kmh 29.68 in1005.1 mb 0.00 in0.0 mm 0.00 in0.0 mm 0.00 in0.0 mm
02:18 PM 59.0°F15.0°C 22.2°F-5.4°C 24% 5.0 mph SSW8.0 kmh SSW 11.0 mph17.7 kmh 29.68 in1005.1 mb 0.00 in0.0 mm 0.00 in0.0 mm 0.00 in0.0 mm
02:19 PM 59.2°F15.1°C 23.3°F-4.8°C 25% 5.0 mph SSW8.0 kmh SSW 10.0 mph16.1 kmh 29.68 in1005.1 mb 0.00 in0.0 mm 0.00 in0.0 mm 0.00 in0.0 mm
02:20 PM 59.2°F15.1°C 23.3°F-4.8°C 25% 5.0 mph SSW8.0 kmh SSW 10.0 mph16.1 kmh 29.68 in1005.1 mb 0.00 in0.0 mm 0.00 in0.0 mm 0.00 in0.0 mm
05:40 PM 61.7°F16.5°C 23.5°F-4.7°C 23% 2.0 mph SW3.2 kmh SW 6.0 mph9.7 kmh 29.63 in1003.4 mb 0.00 in0.0 mm 0.00 in0.0 mm 0.00 in0.0 mm
05:41 PM 61.7°F16.5°C 24.5°F-4.2°C 24% 3.0 mph SSW4.8 kmh SSW 6.0 mph9.7 kmh 29.63 in1003.4 mb 0.00 in0.0 mm 0.00 in0.0 mm 0.00 in0.0 mm
05:42 PM 61.7°F16.5°C 24.5°F-4.2°C 24% 3.0 mph SSW4.8 kmh SSW 6.0 mph9.7 kmh 29.63 in1003.4 mb 0.00 in0.0 mm 0.00 in0.0 mm 0.00 in0.0 mm
05:43 PM 61.9°F16.6°C 24.7°F-4.1°C 24% 3.0 mph SSW4.8 kmh SSW 6.0 mph9.7 kmh 29.63 in1003.4 mb 0.00 in0.0 mm 0.00 in0.0 mm 0.00 in0.0 mm
05:44 PM 61.9°F16.6°C 23.6°F-4.7°C 23% 3.0 mph SSW4.8 kmh SSW 6.0 mph9.7 kmh 29.63 in1003.4 mb 0.00 in0.0 mm 0.00 in0.0 mm 0.00 in0.0 mm
05:45 PM 61.9°F16.6°C 23.6°F-4.7°C 23% 3.0 mph SSW4.8 kmh SSW 6.0 mph9.7 kmh 29.62 in1003.0 mb 0.00 in0.0 mm 0.00 in0.0 mm 0.00 in0.0 mm
05:46 PM 62.1°F16.7°C 23.8°F-4.6°C 23% 2.0 mph SSW3.2 kmh SSW 6.0 mph9.7 kmh 29.62 in1003.0 mb 0.00 in0.0 mm 0.00 in0.0 mm 0.00 in0.0 mm
05:47 PM 62.1°F16.7°C 23.8°F-4.6°C 23% 2.0 mph SSW3.2 kmh SSW 6.0 mph9.7 kmh 29.62 in1003.0 mb 0.00 in0.0 mm 0.00 in0.0 mm 0.00 in0.0 mm
05:48 PM 62.1°F16.7°C 23.8°F-4.6°C 23% 2.0 mph SSW3.2 kmh SSW 6.0 mph9.7 kmh 29.62 in1003.0 mb 0.00 in0.0 mm 0.00 in0.0 mm 0.00 in0.0 mm
05:49 PM 62.1°F16.7°C 23.8°F-4.6°C 23% 2.0 mph SSW3.2 kmh SSW 6.0 mph9.7 kmh 29.62 in1003.0 mb 0.00 in0.0 mm 0.00 in0.0 mm 0.00 in0.0 mm
05:50 PM 62.1°F16.7°C 23.8°F-4.6°C 23% 2.0 mph SSW3.2 kmh SSW 6.0 mph9.7 kmh 29.62 in1003.0 mb 0.00 in0.0 mm 0.00 in0.0 mm 0.00 in0.0 mm
05:51 PM 61.9°F16.6°C 23.6°F-4.7°C 23% 2.0 mph SSW3.2 kmh SSW 4.0 mph6.4 kmh 29.62 in1003.0 mb 0.00 in0.0 mm 0.00 in0.0 mm 0.00 in0.0 mm
05:52 PM 61.9°F16.6°C 23.6°F-4.7°C 23% 2.0 mph SSW3.2 kmh SSW 4.0 mph6.4 kmh 29.62 in1003.0 mb 0.00 in0.0 mm 0.00 in0.0 mm 0.00 in0.0 mm
05:53 PM 61.9°F16.6°C 23.6°F-4.7°C 23% 1.0 mph SSW1.6 kmh SSW 5.0 mph8.0 kmh 29.62 in1003.0 mb 0.00 in0.0 mm 0.00 in0.0 mm 0.00 in0.0 mm
05:54 PM 61.9°F16.6°C 23.6°F-4.7°C 23% 1.0 mph SSW1.6 kmh SSW 5.0 mph8.0 kmh 29.62 in1003.0 mb 0.00 in0.0 mm 0.00 in0.0 mm 0.00 in0.0 mm
05:55 PM 61.7°F16.5°C 23.5°F-4.7°C 23% 1.0 mph SSW1.6 kmh SSW 5.0 mph8.0 kmh 29.62 in1003.0 mb 0.00 in0.0 mm 0.00 in0.0 mm 0.00 in0.0 mm
05:56 PM 61.7°F16.5°C 24.5°F-4.2°C 24% 1.0 mph SSW1.6 kmh SSW 5.0 mph8.0 kmh 29.62 in1003.0 mb 0.00 in0.0 mm 0.00 in0.0 mm 0.00 in0.0 mm
05:57 PM 61.7°F16.5°C 24.5°F-4.2°C 24% 1.0 mph SSW1.6 kmh SSW 5.0 mph8.0 kmh 29.62 in1003.0 mb 0.00 in0.0 mm 0.00 in0.0 mm 0.00 in0.0 mm
05:58 PM 61.9°F16.6°C 24.7°F-4.1°C 24% 1.0 mph SSW1.6 kmh SSW 5.0 mph8.0 kmh 29.63 in1003.4 mb 0.00 in0.0 mm 0.00 in0.0 mm 0.00 in0.0 mm
05:59 PM 61.9°F16.6°C 23.6°F-4.7°C 23% 1.0 mph SSW1.6 kmh SSW 5.0 mph8.0 kmh 29.63 in1003.4 mb 0.00 in0.0 mm 0.00 in0.0 mm 0.00 in0.0 mm
06:00 PM 61.9°F16.6°C 24.7°F-4.1°C 24% 1.0 mph SW1.6 kmh SW 5.0 mph8.0 kmh 29.63 in1003.4 mb 0.00 in0.0 mm 0.00 in0.0 mm 0.00 in0.0 mm
06:01 PM 61.7°F16.5°C 23.5°F-4.7°C 23% 2.0 mph SSW3.2 kmh SSW 5.0 mph8.0 kmh 29.63 in1003.4 mb 0.00 in0.0 mm 0.00 in0.0 mm 0.00 in0.0 mm
06:02 PM 61.7°F16.5°C 24.5°F-4.2°C 24% 2.0 mph SSW3.2 kmh SSW 5.0 mph8.0 kmh 29.62 in1003.0 mb 0.00 in0.0 mm 0.00 in0.0 mm 0.00 in0.0 mm
06:03 PM 61.5°F16.4°C 24.3°F-4.3°C 24% 2.0 mph SSW3.2 kmh SSW 5.0 mph8.0 kmh 29.62 in1003.0 mb 0.00 in0.0 mm 0.00 in0.0 mm 0.00 in0.0 mm
06:04 PM 61.5°F16.4°C 24.3°F-4.3°C 24% 2.0 mph SSW3.2 kmh SSW 5.0 mph8.0 kmh 29.62 in1003.0 mb 0.00 in0.0 mm 0.00 in0.0 mm 0.00 in0.0 mm
06:05 PM 61.5°F16.4°C 24.3°F-4.3°C 24% 2.0 mph SSW3.2 kmh SSW 5.0 mph8.0 kmh 29.62 in1003.0 mb 0.00 in0.0 mm 0.00 in0.0 mm 0.00 in0.0 mm
06:06 PM 61.7°F16.5°C 24.5°F-4.2°C 24% 2.0 mph SSW3.2 kmh SSW 5.0 mph8.0 kmh 29.62 in1003.0 mb 0.00 in0.0 mm 0.00 in0.0 mm 0.00 in0.0 mm
06:07 PM 61.7°F16.5°C 24.5°F-4.2°C 24% 2.0 mph SSW3.2 kmh SSW 5.0 mph8.0 kmh 29.62 in1003.0 mb 0.00 in0.0 mm 0.00 in0.0 mm 0.00 in0.0 mm
06:08 PM 61.9°F16.6°C 24.7°F-4.1°C 24% 1.0 mph SSW1.6 kmh SSW 5.0 mph8.0 kmh 29.62 in1003.0 mb 0.00 in0.0 mm 0.00 in0.0 mm 0.00 in0.0 mm
06:09 PM 61.9°F16.6°C 24.7°F-4.1°C 24% 1.0 mph SW1.6 kmh SW 5.0 mph8.0 kmh 29.62 in1003.0 mb 0.00 in0.0 mm 0.00 in0.0 mm 0.00 in0.0 mm
06:10 PM 61.9°F16.6°C 24.7°F-4.1°C 24% 1.0 mph SSW1.6 kmh SSW 5.0 mph8.0 kmh 29.62 in1003.0 mb 0.00 in0.0 mm 0.00 in0.0 mm 0.00 in0.0 mm
06:11 PM 61.9°F16.6°C 24.7°F-4.1°C 24% 1.0 mph SSW1.6 kmh SSW 4.0 mph6.4 kmh 29.62 in1003.0 mb 0.00 in0.0 mm 0.00 in0.0 mm 0.00 in0.0 mm
06:12 PM 61.9°F16.6°C 24.7°F-4.1°C 24% 1.0 mph SW1.6 kmh SW 6.0 mph9.7 kmh 29.62 in1003.0 mb 0.00 in0.0 mm 0.00 in0.0 mm 0.00 in0.0 mm
06:13 PM 61.9°F16.6°C 24.7°F-4.1°C 24% 1.0 mph SW1.6 kmh SW 6.0 mph9.7 kmh 29.62 in1003.0 mb 0.00 in0.0 mm 0.00 in0.0 mm 0.00 in0.0 mm
06:14 PM 61.7°F16.5°C 24.5°F-4.2°C 24% 1.0 mph SW1.6 kmh SW 6.0 mph9.7 kmh 29.62 in1003.0 mb 0.00 in0.0 mm 0.00 in0.0 mm 0.00 in0.0 mm
06:15 PM 61.7°F16.5°C 24.5°F-4.2°C 24% 1.0 mph SW1.6 kmh SW 6.0 mph9.7 kmh 29.62 in1003.0 mb 0.00 in0.0 mm 0.00 in0.0 mm 0.00 in0.0 mm
06:16 PM 61.5°F16.4°C 24.3°F-4.3°C 24% 1.0 mph SW1.6 kmh SW 6.0 mph9.7 kmh 29.62 in1003.0 mb 0.00 in0.0 mm 0.00 in0.0 mm 0.00 in0.0 mm
06:17 PM 61.5°F16.4°C 24.3°F-4.3°C 24% 1.0 mph SW1.6 kmh SW 6.0 mph9.7 kmh 29.62 in1003.0 mb 0.00 in0.0 mm 0.00 in0.0 mm 0.00 in0.0 mm
06:18 PM 61.5°F16.4°C 24.3°F-4.3°C 24% 1.0 mph SW1.6 kmh SW 6.0 mph9.7 kmh 29.62 in1003.0 mb 0.00 in0.0 mm 0.00 in0.0 mm 0.00 in0.0 mm
06:19 PM 61.5°F16.4°C 24.3°F-4.3°C 24% 1.0 mph SW1.6 kmh SW 6.0 mph9.7 kmh 29.62 in1003.0 mb 0.00 in0.0 mm 0.00 in0.0 mm 0.00 in0.0 mm
06:20 PM 61.5°F16.4°C 24.3°F-4.3°C 24% 1.0 mph SW1.6 kmh SW 6.0 mph9.7 kmh 29.62 in1003.0 mb 0.00 in0.0 mm 0.00 in0.0 mm 0.00 in0.0 mm
06:21 PM 61.5°F16.4°C 24.3°F-4.3°C 24% 1.0 mph SW1.6 kmh SW 6.0 mph9.7 kmh 29.62 in1003.0 mb 0.00 in0.0 mm 0.00 in0.0 mm 0.00 in0.0 mm
06:22 PM 61.5°F16.4°C 24.3°F-4.3°C 24% 2.0 mph SW3.2 kmh SW 5.0 mph8.0 kmh 29.62 in1003.0 mb 0.00 in0.0 mm 0.00 in0.0 mm 0.00 in0.0 mm
06:23 PM 61.3°F16.3°C 24.2°F-4.3°C 24% 2.0 mph SW3.2 kmh SW 5.0 mph8.0 kmh 29.62 in1003.0 mb 0.00 in0.0 mm 0.00 in0.0 mm 0.00 in0.0 mm
06:24 PM 61.3°F16.3°C 24.2°F-4.3°C 24% 2.0 mph SW3.2 kmh SW 5.0 mph8.0 kmh 29.62 in1003.0 mb 0.00 in0.0 mm 0.00 in0.0 mm 0.00 in0.0 mm
06:25 PM 61.3°F16.3°C 24.2°F-4.3°C 24% 2.0 mph SW3.2 kmh SW 5.0 mph8.0 kmh 29.62 in1003.0 mb 0.00 in0.0 mm 0.00 in0.0 mm 0.00 in0.0 mm
06:26 PM 61.3°F16.3°C 24.2°F-4.3°C 24% 2.0 mph SW3.2 kmh SW 5.0 mph8.0 kmh 29.62 in1003.0 mb 0.00 in0.0 mm 0.00 in0.0 mm 0.00 in0.0 mm
06:27 PM 61.3°F16.3°C 24.2°F-4.3°C 24% 2.0 mph SW3.2 kmh SW 5.0 mph8.0 kmh 29.62 in1003.0 mb 0.00 in0.0 mm 0.00 in0.0 mm 0.00 in0.0 mm
06:28 PM 61.2°F16.2°C 24.0°F-4.4°C 24% 2.0 mph SW3.2 kmh SW 5.0 mph8.0 kmh 29.62 in1003.0 mb 0.00 in0.0 mm 0.00 in0.0 mm 0.00 in0.0 mm
06:29 PM 61.2°F16.2°C 24.0°F-4.4°C 24% 2.0 mph SW3.2 kmh SW 5.0 mph8.0 kmh 29.62 in1003.0 mb 0.00 in0.0 mm 0.00 in0.0 mm 0.00 in0.0 mm
06:30 PM 61.2°F16.2°C 25.0°F-3.9°C 25% 2.0 mph SW3.2 kmh SW 5.0 mph8.0 kmh 29.62 in1003.0 mb 0.00 in0.0 mm 0.00 in0.0 mm 0.00 in0.0 mm
06:31 PM 61.2°F16.2°C 25.0°F-3.9°C 25% 2.0 mph SW3.2 kmh SW 5.0 mph8.0 kmh 29.62 in1003.0 mb 0.00 in0.0 mm 0.00 in0.0 mm 0.00 in0.0 mm
06:32 PM 61.2°F16.2°C 25.0°F-3.9°C 25% 2.0 mph SW3.2 kmh SW 5.0 mph8.0 kmh 29.62 in1003.0 mb 0.00 in0.0 mm 0.00 in0.0 mm 0.00 in0.0 mm
06:33 PM 61.2°F16.2°C 25.0°F-3.9°C 25% 2.0 mph SW3.2 kmh SW 5.0 mph8.0 kmh 29.62 in1003.0 mb 0.00 in0.0 mm 0.00 in0.0 mm 0.00 in0.0 mm
06:34 PM 61.2°F16.2°C 24.0°F-4.4°C 24% 2.0 mph SW3.2 kmh SW 5.0 mph8.0 kmh 29.62 in1003.0 mb 0.00 in0.0 mm 0.00 in0.0 mm 0.00 in0.0 mm
06:35 PM 61.2°F16.2°C 24.0°F-4.4°C 24% 2.0 mph SSW3.2 kmh SSW 4.0 mph6.4 kmh 29.62 in1003.0 mb 0.00 in0.0 mm 0.00 in0.0 mm 0.00 in0.0 mm
06:36 PM 61.2°F16.2°C 25.0°F-3.9°C 25% 2.0 mph SW3.2 kmh SW 4.0 mph6.4 kmh 29.62 in1003.0 mb 0.00 in0.0 mm 0.00 in0.0 mm 0.00 in0.0 mm
06:37 PM 61.2°F16.2°C 25.0°F-3.9°C 25% 2.0 mph SW3.2 kmh SW 4.0 mph6.4 kmh 29.62 in1003.0 mb 0.00 in0.0 mm 0.00 in0.0 mm 0.00 in0.0 mm
06:38 PM 61.2°F16.2°C 25.0°F-3.9°C 25% 2.0 mph SW3.2 kmh SW 4.0 mph6.4 kmh 29.62 in1003.0 mb 0.00 in0.0 mm 0.00 in0.0 mm 0.00 in0.0 mm
06:39 PM 61.2°F16.2°C 25.0°F-3.9°C 25% 2.0 mph SW3.2 kmh SW 4.0 mph6.4 kmh 29.62 in1003.0 mb 0.00 in0.0 mm 0.00 in0.0 mm 0.00 in0.0 mm
06:40 PM 61.2°F16.2°C 25.0°F-3.9°C 25% 2.0 mph SW3.2 kmh SW 4.0 mph6.4 kmh 29.62 in1003.0 mb 0.00 in0.0 mm 0.00 in0.0 mm 0.00 in0.0 mm
06:41 PM 61.2°F16.2°C 25.0°F-3.9°C 25% 1.0 mph SW1.6 kmh SW 4.0 mph6.4 kmh 29.62 in1003.0 mb 0.00 in0.0 mm 0.00 in0.0 mm 0.00 in0.0 mm
06:42 PM 61.2°F16.2°C 25.0°F-3.9°C 25% 1.0 mph SW1.6 kmh SW 4.0 mph6.4 kmh 29.62 in1003.0 mb 0.00 in0.0 mm 0.00 in0.0 mm 0.00 in0.0 mm
06:43 PM 61.2°F16.2°C 25.0°F-3.9°C 25% 1.0 mph SW1.6 kmh SW 4.0 mph6.4 kmh 29.62 in1003.0 mb 0.00 in0.0 mm 0.00 in0.0 mm 0.00 in0.0 mm
06:44 PM 61.0°F16.1°C 24.9°F-3.9°C 25% 1.0 mph SW1.6 kmh SW 4.0 mph6.4 kmh 29.63 in1003.4 mb 0.00 in0.0 mm 0.00 in0.0 mm 0.00 in0.0 mm
06:45 PM 61.0°F16.1°C 24.9°F-3.9°C 25% 1.0 mph SW1.6 kmh SW 4.0 mph6.4 kmh 29.62 in1003.0 mb 0.00 in0.0 mm 0.00 in0.0 mm 0.00 in0.0 mm
06:46 PM 61.0°F16.1°C 24.9°F-3.9°C 25% 1.0 mph SW1.6 kmh SW 4.0 mph6.4 kmh 29.63 in1003.4 mb 0.00 in0.0 mm 0.00 in0.0 mm 0.00 in0.0 mm
06:47 PM 61.0°F16.1°C 24.9°F-3.9°C 25% 1.0 mph SW1.6 kmh SW 4.0 mph6.4 kmh 29.62 in1003.0 mb 0.00 in0.0 mm 0.00 in0.0 mm 0.00 in0.0 mm
06:48 PM 60.8°F16.0°C 24.7°F-4.1°C 25% 1.0 mph SW1.6 kmh SW 4.0 mph6.4 kmh 29.62 in1003.0 mb 0.00 in0.0 mm 0.00 in0.0 mm 0.00 in0.0 mm
06:49 PM 60.8°F16.0°C 24.7°F-4.1°C 25% 1.0 mph SW1.6 kmh SW 3.0 mph4.8 kmh 29.62 in1003.0 mb 0.00 in0.0 mm 0.00 in0.0 mm 0.00 in0.0 mm
06:50 PM 60.8°F16.0°C 24.7°F-4.1°C 25% 1.0 mph SW1.6 kmh SW 3.0 mph4.8 kmh 29.63 in1003.4 mb 0.00 in0.0 mm 0.00 in0.0 mm 0.00 in0.0 mm
06:51 PM 60.6°F15.9°C 24.6°F-4.1°C 25% 1.0 mph SW1.6 kmh SW 3.0 mph4.8 kmh 29.62 in1003.0 mb 0.00 in0.0 mm 0.00 in0.0 mm 0.00 in0.0 mm
06:52 PM 60.6°F15.9°C 24.6°F-4.1°C 25% 1.0 mph SW1.6 kmh SW 3.0 mph4.8 kmh 29.62 in1003.0 mb 0.00 in0.0 mm 0.00 in0.0 mm 0.00 in0.0 mm
06:53 PM 60.6°F15.9°C 24.6°F-4.1°C 25% 1.0 mph SW1.6 kmh SW 2.0 mph3.2 kmh 29.62 in1003.0 mb 0.00 in0.0 mm 0.00 in0.0 mm 0.00 in0.0 mm
06:54 PM 60.6°F15.9°C 24.6°F-4.1°C 25% 1.0 mph SSW1.6 kmh SSW 1.0 mph1.6 kmh 29.62 in1003.0 mb 0.00 in0.0 mm 0.00 in0.0 mm 0.00 in0.0 mm
06:55 PM 60.6°F15.9°C 24.6°F-4.1°C 25% Calm Calm 1.0 mph1.6 kmh 29.62 in1003.0 mb 0.00 in0.0 mm 0.00 in0.0 mm 0.00 in0.0 mm
06:56 PM 60.4°F15.8°C 24.4°F-4.2°C 25% Calm Calm 1.0 mph1.6 kmh 29.62 in1003.0 mb 0.00 in0.0 mm 0.00 in0.0 mm 0.00 in0.0 mm
06:57 PM 60.4°F15.8°C 24.4°F-4.2°C 25% Calm Calm 1.0 mph1.6 kmh 29.62 in1003.0 mb 0.00 in0.0 mm 0.00 in0.0 mm 0.00 in0.0 mm
06:58 PM 60.3°F15.7°C 24.3°F-4.3°C 25% Calm Calm 1.0 mph1.6 kmh 29.62 in1003.0 mb 0.00 in0.0 mm 0.00 in0.0 mm 0.00 in0.0 mm
06:59 PM 60.3°F15.7°C 24.3°F-4.3°C 25% Calm Calm 1.0 mph1.6 kmh 29.62 in1003.0 mb 0.00 in0.0 mm 0.00 in0.0 mm 0.00 in0.0 mm
07:00 PM 60.3°F15.7°C 24.3°F-4.3°C 25% Calm Calm 1.0 mph1.6 kmh 29.62 in1003.0 mb 0.00 in0.0 mm 0.00 in0.0 mm 0.00 in0.0 mm
07:01 PM 60.3°F15.7°C 24.3°F-4.3°C 25% Calm Calm 1.0 mph1.6 kmh 29.62 in1003.0 mb 0.00 in0.0 mm 0.00 in0.0 mm 0.00 in0.0 mm
07:02 PM 60.1°F15.6°C 24.1°F-4.4°C 25% Calm Calm 1.0 mph1.6 kmh 29.62 in1003.0 mb 0.00 in0.0 mm 0.00 in0.0 mm 0.00 in0.0 mm
07:03 PM 60.1°F15.6°C 24.1°F-4.4°C 25% Calm Calm 2.0 mph3.2 kmh 29.62 in1003.0 mb 0.00 in0.0 mm 0.00 in0.0 mm 0.00 in0.0 mm
07:04 PM 60.1°F15.6°C 24.1°F-4.4°C 25% Calm Calm 2.0 mph3.2 kmh 29.62 in1003.0 mb 0.00 in0.0 mm 0.00 in0.0 mm 0.00 in0.0 mm
07:05 PM 59.7°F15.4°C 23.8°F-4.6°C 25% Calm Calm 2.0 mph3.2 kmh 29.62 in1003.0 mb 0.00 in0.0 mm 0.00 in0.0 mm 0.00 in0.0 mm
07:06 PM 59.7°F15.4°C 24.7°F-4.1°C 26% Calm Calm 2.0 mph3.2 kmh 29.62 in1003.0 mb 0.00 in0.0 mm 0.00 in0.0 mm 0.00 in0.0 mm
07:07 PM 59.5°F15.3°C 24.6°F-4.1°C 26% Calm Calm 2.0 mph3.2 kmh 29.62 in1003.0 mb 0.00 in0.0 mm 0.00 in0.0 mm 0.00 in0.0 mm
07:08 PM 59.5°F15.3°C 24.6°F-4.1°C 26% Calm Calm 2.0 mph3.2 kmh 29.62 in1003.0 mb 0.00 in0.0 mm 0.00 in0.0 mm 0.00 in0.0 mm
07:09 PM 59.4°F15.2°C 24.4°F-4.2°C 26% Calm Calm 2.0 mph3.2 kmh 29.62 in1003.0 mb 0.00 in0.0 mm 0.00 in0.0 mm 0.00 in0.0 mm
07:10 PM 59.2°F15.1°C 24.3°F-4.3°C 26% Calm Calm 2.0 mph3.2 kmh 29.62 in1003.0 mb 0.00 in0.0 mm 0.00 in0.0 mm 0.00 in0.0 mm
07:11 PM 59.2°F15.1°C 24.3°F-4.3°C 26% Calm Calm 2.0 mph3.2 kmh 29.62 in1003.0 mb 0.00 in0.0 mm 0.00 in0.0 mm 0.00 in0.0 mm
07:12 PM 59.0°F15.0°C 24.1°F-4.4°C 26% Calm Calm 2.0 mph3.2 kmh 29.62 in1003.0 mb 0.00 in0.0 mm 0.00 in0.0 mm 0.00 in0.0 mm
07:13 PM 58.8°F14.9°C 24.0°F-4.4°C 26% Calm Calm 2.0 mph3.2 kmh 29.62 in1003.0 mb 0.00 in0.0 mm 0.00 in0.0 mm 0.00 in0.0 mm
07:14 PM 58.8°F14.9°C 24.0°F-4.4°C 26% Calm Calm 2.0 mph3.2 kmh 29.62 in1003.0 mb 0.00 in0.0 mm 0.00 in0.0 mm 0.00 in0.0 mm
07:15 PM 58.8°F14.9°C 24.0°F-4.4°C 26% Calm Calm 2.0 mph3.2 kmh 29.62 in1003.0 mb 0.00 in0.0 mm 0.00 in0.0 mm 0.00 in0.0 mm
07:16 PM 58.6°F14.8°C 24.7°F-4.1°C 27% Calm Calm 2.0 mph3.2 kmh 29.62 in1003.0 mb 0.00 in0.0 mm 0.00 in0.0 mm 0.00 in0.0 mm
07:17 PM 58.6°F14.8°C 24.7°F-4.1°C 27% Calm Calm 2.0 mph3.2 kmh 29.62 in1003.0 mb 0.00 in0.0 mm 0.00 in0.0 mm 0.00 in0.0 mm
07:18 PM 58.5°F14.7°C 24.6°F-4.1°C 27% Calm Calm 2.0 mph3.2 kmh 29.62 in1003.0 mb 0.00 in0.0 mm 0.00 in0.0 mm 0.00 in0.0 mm
07:19 PM 58.3°F14.6°C 24.4°F-4.2°C 27% Calm Calm 2.0 mph3.2 kmh 29.62 in1003.0 mb 0.00 in0.0 mm 0.00 in0.0 mm 0.00 in0.0 mm
07:20 PM 58.3°F14.6°C 24.4°F-4.2°C 27% Calm Calm 2.0 mph3.2 kmh 29.62 in1003.0 mb 0.00 in0.0 mm 0.00 in0.0 mm 0.00 in0.0 mm
07:21 PM 58.1°F14.5°C 24.3°F-4.3°C 27% Calm Calm 2.0 mph3.2 kmh 29.62 in1003.0 mb 0.00 in0.0 mm 0.00 in0.0 mm 0.00 in0.0 mm
07:22 PM 58.1°F14.5°C 25.1°F-3.8°C 28% Calm Calm 2.0 mph3.2 kmh 29.62 in1003.0 mb 0.00 in0.0 mm 0.00 in0.0 mm 0.00 in0.0 mm
07:23 PM 57.9°F14.4°C 25.0°F-3.9°C 28% Calm Calm 2.0 mph3.2 kmh 29.62 in1003.0 mb 0.00 in0.0 mm 0.00 in0.0 mm 0.00 in0.0 mm
07:24 PM 57.7°F14.3°C 25.7°F-3.5°C 29% Calm Calm 2.0 mph3.2 kmh 29.62 in1003.0 mb 0.00 in0.0 mm 0.00 in0.0 mm 0.00 in0.0 mm
07:25 PM 57.7°F14.3°C 24.8°F-4.0°C 28% Calm Calm 2.0 mph3.2 kmh 29.62 in1003.0 mb 0.00 in0.0 mm 0.00 in0.0 mm 0.00 in0.0 mm
07:26 PM 57.6°F14.2°C 25.5°F-3.6°C 29% Calm Calm 2.0 mph3.2 kmh 29.62 in1003.0 mb 0.00 in0.0 mm 0.00 in0.0 mm 0.00 in0.0 mm
07:27 PM 57.6°F14.2°C 25.5°F-3.6°C 29% Calm Calm 2.0 mph3.2 kmh 29.62 in1003.0 mb 0.00 in0.0 mm 0.00 in0.0 mm 0.00 in0.0 mm
07:28 PM 57.4°F14.1°C 25.3°F-3.7°C 29% Calm Calm 2.0 mph3.2 kmh 29.63 in1003.4 mb 0.00 in0.0 mm 0.00 in0.0 mm 0.00 in0.0 mm
07:29 PM 57.4°F14.1°C 25.3°F-3.7°C 29% Calm Calm 2.0 mph3.2 kmh 29.63 in1003.4 mb 0.00 in0.0 mm 0.00 in0.0 mm 0.00 in0.0 mm
07:30 PM 57.4°F14.1°C 25.3°F-3.7°C 29% Calm Calm 2.0 mph3.2 kmh 29.63 in1003.4 mb 0.00 in0.0 mm 0.00 in0.0 mm 0.00 in0.0 mm
07:31 PM 57.4°F14.1°C 25.3°F-3.7°C 29% Calm Calm 2.0 mph3.2 kmh 29.63 in1003.4 mb 0.00 in0.0 mm 0.00 in0.0 mm 0.00 in0.0 mm
07:32 PM 57.2°F14.0°C 25.2°F-3.8°C 29% Calm Calm 2.0 mph3.2 kmh 29.63 in1003.4 mb 0.00 in0.0 mm 0.00 in0.0 mm 0.00 in0.0 mm
07:33 PM 57.2°F14.0°C 25.2°F-3.8°C 29% Calm Calm 2.0 mph3.2 kmh 29.63 in1003.4 mb 0.00 in0.0 mm 0.00 in0.0 mm 0.00 in0.0 mm
07:34 PM 57.0°F13.9°C 25.0°F-3.9°C 29% Calm Calm 2.0 mph3.2 kmh 29.63 in1003.4 mb 0.00 in0.0 mm 0.00 in0.0 mm 0.00 in0.0 mm
07:35 PM 57.0°F13.9°C 25.0°F-3.9°C 29% Calm Calm 2.0 mph3.2 kmh 29.63 in1003.4 mb 0.00 in0.0 mm 0.00 in0.0 mm 0.00 in0.0 mm
07:36 PM 57.0°F13.9°C 25.9°F-3.4°C 30% Calm Calm 2.0 mph3.2 kmh 29.63 in1003.4 mb 0.00 in0.0 mm 0.00 in0.0 mm 0.00 in0.0 mm
07:37 PM 56.8°F13.8°C 25.7°F-3.5°C 30% Calm Calm 2.0 mph3.2 kmh 29.63 in1003.4 mb 0.00 in0.0 mm 0.00 in0.0 mm 0.00 in0.0 mm
07:38 PM 56.8°F13.8°C 25.7°F-3.5°C 30% Calm Calm 2.0 mph3.2 kmh 29.63 in1003.4 mb 0.00 in0.0 mm 0.00 in0.0 mm 0.00 in0.0 mm
07:39 PM 56.8°F13.8°C 25.7°F-3.5°C 30% Calm Calm 2.0 mph3.2 kmh 29.63 in1003.4 mb 0.00 in0.0 mm 0.00 in0.0 mm 0.00 in0.0 mm
07:40 PM 56.7°F13.7°C 25.5°F-3.6°C 30% Calm Calm -- 29.63 in1003.4 mb 0.00 in0.0 mm 0.00 in0.0 mm 0.00 in0.0 mm
07:41 PM 56.7°F13.7°C 25.5°F-3.6°C 30% Calm Calm -- 29.63 in1003.4 mb 0.00 in0.0 mm 0.00 in0.0 mm 0.00 in0.0 mm
07:42 PM 56.7°F13.7°C 25.5°F-3.6°C 30% Calm Calm -- 29.62 in1003.0 mb 0.00 in0.0 mm 0.00 in0.0 mm 0.00 in0.0 mm
07:43 PM 56.5°F13.6°C 25.4°F-3.7°C 30% Calm Calm -- 29.62 in1003.0 mb 0.00 in0.0 mm 0.00 in0.0 mm 0.00 in0.0 mm
07:44 PM 56.5°F13.6°C 25.4°F-3.7°C 30% Calm Calm -- 29.63 in1003.4 mb 0.00 in0.0 mm 0.00 in0.0 mm 0.00 in0.0 mm
07:45 PM 56.5°F13.6°C 25.4°F-3.7°C 30% Calm Calm -- 29.63 in1003.4 mb 0.00 in0.0 mm 0.00 in0.0 mm 0.00 in0.0 mm
07:46 PM 56.5°F13.6°C 25.4°F-3.7°C 30% Calm Calm -- 29.63 in1003.4 mb 0.00 in0.0 mm 0.00 in0.0 mm 0.00 in0.0 mm
07:47 PM 56.5°F13.6°C 25.4°F-3.7°C 30% Calm Calm -- 29.63 in1003.4 mb 0.00 in0.0 mm 0.00 in0.0 mm 0.00 in0.0 mm
07:48 PM 56.5°F13.6°C 25.4°F-3.7°C 30% Calm Calm -- 29.63 in1003.4 mb 0.00 in0.0 mm 0.00 in0.0 mm 0.00 in0.0 mm
07:49 PM 56.5°F13.6°C 25.4°F-3.7°C 30% Calm Calm -- 29.63 in1003.4 mb 0.00 in0.0 mm 0.00 in0.0 mm 0.00 in0.0 mm
07:50 PM 56.3°F13.5°C 25.2°F-3.8°C 30% Calm Calm -- 29.63 in1003.4 mb 0.00 in0.0 mm 0.00 in0.0 mm 0.00 in0.0 mm
07:51 PM 56.3°F13.5°C 25.2°F-3.8°C 30% Calm Calm -- 29.63 in1003.4 mb 0.00 in0.0 mm 0.00 in0.0 mm 0.00 in0.0 mm
07:52 PM 56.3°F13.5°C 25.2°F-3.8°C 30% Calm Calm -- 29.63 in1003.4 mb 0.00 in0.0 mm 0.00 in0.0 mm 0.00 in0.0 mm
07:53 PM 56.1°F13.4°C 25.1°F-3.8°C 30% Calm Calm -- 29.63 in1003.4 mb 0.00 in0.0 mm 0.00 in0.0 mm 0.00 in0.0 mm
07:54 PM 56.1°F13.4°C 25.1°F-3.8°C 30% Calm Calm -- 29.63 in1003.4 mb 0.00 in0.0 mm 0.00 in0.0 mm 0.00 in0.0 mm
07:55 PM 56.1°F13.4°C 25.1°F-3.8°C 30% Calm Calm -- 29.63 in1003.4 mb 0.00 in0.0 mm 0.00 in0.0 mm 0.00 in0.0 mm
07:56 PM 56.1°F13.4°C 25.1°F-3.8°C 30% Calm Calm -- 29.63 in1003.4 mb 0.00 in0.0 mm 0.00 in0.0 mm 0.00 in0.0 mm
07:57 PM 56.1°F13.4°C 25.1°F-3.8°C 30% Calm Calm -- 29.63 in1003.4 mb 0.00 in0.0 mm 0.00 in0.0 mm 0.00 in0.0 mm
07:58 PM 56.1°F13.4°C 25.1°F-3.8°C 30% Calm Calm -- 29.63 in1003.4 mb 0.00 in0.0 mm 0.00 in0.0 mm 0.00 in0.0 mm
07:59 PM 55.9°F13.3°C 24.9°F-3.9°C 30% Calm Calm -- 29.63 in1003.4 mb 0.00 in0.0 mm 0.00 in0.0 mm 0.00 in0.0 mm
08:00 PM 55.9°F13.3°C 24.9°F-3.9°C 30% Calm Calm -- 29.63 in1003.4 mb 0.00 in0.0 mm 0.00 in0.0 mm 0.00 in0.0 mm
08:01 PM 55.9°F13.3°C 24.9°F-3.9°C 30% Calm Calm -- 29.63 in1003.4 mb 0.00 in0.0 mm 0.00 in0.0 mm 0.00 in0.0 mm
08:02 PM 55.9°F13.3°C 24.9°F-3.9°C 30% Calm Calm -- 29.63 in1003.4 mb 0.00 in0.0 mm 0.00 in0.0 mm 0.00 in0.0 mm
08:03 PM 55.9°F13.3°C 24.9°F-3.9°C 30% Calm Calm -- 29.63 in1003.4 mb 0.00 in0.0 mm 0.00 in0.0 mm 0.00 in0.0 mm
08:04 PM 56.1°F13.4°C 25.1°F-3.8°C 30% Calm Calm -- 29.63 in1003.4 mb 0.00 in0.0 mm 0.00 in0.0 mm 0.00 in0.0 mm
08:05 PM 56.1°F13.4°C 25.1°F-3.8°C 30% Calm Calm -- 29.63 in1003.4 mb 0.00 in0.0 mm 0.00 in0.0 mm 0.00 in0.0 mm
08:06 PM 56.1°F13.4°C 25.1°F-3.8°C 30% Calm Calm -- 29.63 in1003.4 mb 0.00 in0.0 mm 0.00 in0.0 mm 0.00 in0.0 mm
08:07 PM 55.9°F13.3°C 24.9°F-3.9°C 30% Calm Calm -- 29.64 in1003.7 mb 0.00 in0.0 mm 0.00 in0.0 mm 0.00 in0.0 mm
08:08 PM 55.9°F13.3°C 25.7°F-3.5°C 31% Calm Calm -- 29.64 in1003.7 mb 0.00 in0.0 mm 0.00 in0.0 mm 0.00 in0.0 mm
08:09 PM 55.9°F13.3°C 25.7°F-3.5°C 31% Calm Calm -- 29.64 in1003.7 mb 0.00 in0.0 mm 0.00 in0.0 mm 0.00 in0.0 mm
08:10 PM 55.9°F13.3°C 25.7°F-3.5°C 31% Calm Calm -- 29.64 in1003.7 mb 0.00 in0.0 mm 0.00 in0.0 mm 0.00 in0.0 mm
08:11 PM 55.8°F13.2°C 26.3°F-3.2°C 32% Calm Calm -- 29.64 in1003.7 mb 0.00 in0.0 mm 0.00 in0.0 mm 0.00 in0.0 mm
08:12 PM 55.8°F13.2°C 26.3°F-3.2°C 32% Calm Calm -- 29.64 in1003.7 mb 0.00 in0.0 mm 0.00 in0.0 mm 0.00 in0.0 mm
08:13 PM 55.8°F13.2°C 26.3°F-3.2°C 32% Calm Calm -- 29.64 in1003.7 mb 0.00 in0.0 mm 0.00 in0.0 mm 0.00 in0.0 mm
08:14 PM 55.6°F13.1°C 26.9°F-2.8°C 33% Calm Calm -- 29.64 in1003.7 mb 0.00 in0.0 mm 0.00 in0.0 mm 0.00 in0.0 mm
08:15 PM 55.6°F13.1°C 26.2°F-3.2°C 32% Calm Calm -- 29.64 in1003.7 mb 0.00 in0.0 mm 0.00 in0.0 mm 0.00 in0.0 mm
08:16 PM 55.6°F13.1°C 26.2°F-3.2°C 32% Calm Calm -- 29.64 in1003.7 mb 0.00 in0.0 mm 0.00 in0.0 mm 0.00 in0.0 mm
08:17 PM 55.6°F13.1°C 26.2°F-3.2°C 32% Calm Calm -- 29.64 in1003.7 mb 0.00 in0.0 mm 0.00 in0.0 mm 0.00 in0.0 mm
08:18 PM 55.4°F13.0°C 26.0°F-3.3°C 32% Calm Calm -- 29.64 in1003.7 mb 0.00 in0.0 mm 0.00 in0.0 mm 0.00 in0.0 mm
08:19 PM 55.2°F12.9°C 25.8°F-3.4°C 32% Calm Calm -- 29.64 in1003.7 mb 0.00 in0.0 mm 0.00 in0.0 mm 0.00 in0.0 mm
08:20 PM 55.2°F12.9°C 25.8°F-3.4°C 32% Calm Calm -- 29.64 in1003.7 mb 0.00 in0.0 mm 0.00 in0.0 mm 0.00 in0.0 mm
08:21 PM 55.2°F12.9°C 25.8°F-3.4°C 32% Calm Calm -- 29.64 in1003.7 mb 0.00 in0.0 mm 0.00 in0.0 mm 0.00 in0.0 mm
08:22 PM 55.0°F12.8°C 25.7°F-3.5°C 32% Calm Calm -- 29.64 in1003.7 mb 0.00 in0.0 mm 0.00 in0.0 mm 0.00 in0.0 mm
08:23 PM 55.0°F12.8°C 25.7°F-3.5°C 32% Calm Calm -- 29.64 in1003.7 mb 0.00 in0.0 mm 0.00 in0.0 mm 0.00 in0.0 mm
08:24 PM 55.0°F12.8°C 25.7°F-3.5°C 32% Calm Calm -- 29.64 in1003.7 mb 0.00 in0.0 mm 0.00 in0.0 mm 0.00 in0.0 mm
08:25 PM 55.0°F12.8°C 25.7°F-3.5°C 32% Calm Calm -- 29.64 in1003.7 mb 0.00 in0.0 mm 0.00 in0.0 mm 0.00 in0.0 mm
08:26 PM 54.9°F12.7°C 25.5°F-3.6°C 32% Calm Calm -- 29.64 in1003.7 mb 0.00 in0.0 mm 0.00 in0.0 mm 0.00 in0.0 mm
08:27 PM 54.9°F12.7°C 25.5°F-3.6°C 32% Calm Calm -- 29.64 in1003.7 mb 0.00 in0.0 mm 0.00 in0.0 mm 0.00 in0.0 mm
08:28 PM 54.9°F12.7°C 25.5°F-3.6°C 32% Calm Calm -- 29.64 in1003.7 mb 0.00 in0.0 mm 0.00 in0.0 mm 0.00 in0.0 mm
08:29 PM 54.9°F12.7°C 25.5°F-3.6°C 32% Calm Calm -- 29.64 in1003.7 mb 0.00 in0.0 mm 0.00 in0.0 mm 0.00 in0.0 mm
08:30 PM 54.9°F12.7°C 26.3°F-3.2°C 33% Calm Calm -- 29.64 in1003.7 mb 0.00 in0.0 mm 0.00 in0.0 mm 0.00 in0.0 mm
08:31 PM 54.9°F12.7°C 25.5°F-3.6°C 32% Calm Calm -- 29.64 in1003.7 mb 0.00 in0.0 mm 0.00 in0.0 mm 0.00 in0.0 mm
08:32 PM 54.9°F12.7°C 26.3°F-3.2°C 33% Calm Calm -- 29.64 in1003.7 mb 0.00 in0.0 mm 0.00 in0.0 mm 0.00 in0.0 mm
08:33 PM 54.9°F12.7°C 26.3°F-3.2°C 33% Calm Calm -- 29.64 in1003.7 mb 0.00 in0.0 mm 0.00 in0.0 mm 0.00 in0.0 mm
08:34 PM 54.7°F12.6°C 26.1°F-3.3°C 33% Calm Calm -- 29.64 in1003.7 mb 0.00 in0.0 mm 0.00 in0.0 mm 0.00 in0.0 mm
08:35 PM 54.7°F12.6°C 26.1°F-3.3°C 33% Calm Calm -- 29.64 in1003.7 mb 0.00 in0.0 mm 0.00 in0.0 mm 0.00 in0.0 mm
08:36 PM 54.7°F12.6°C 26.1°F-3.3°C 33% Calm Calm -- 29.64 in1003.7 mb 0.00 in0.0 mm 0.00 in0.0 mm 0.00 in0.0 mm
08:37 PM 54.7°F12.6°C 26.1°F-3.3°C 33% Calm Calm -- 29.64 in1003.7 mb 0.00 in0.0 mm 0.00 in0.0 mm 0.00 in0.0 mm
08:38 PM 54.5°F12.5°C 26.0°F-3.3°C 33% Calm Calm -- 29.64 in1003.7 mb 0.00 in0.0 mm 0.00 in0.0 mm 0.00 in0.0 mm
08:39 PM 54.5°F12.5°C 26.0°F-3.3°C 33% Calm Calm -- 29.64 in1003.7 mb 0.00 in0.0 mm 0.00 in0.0 mm 0.00 in0.0 mm
08:40 PM 54.5°F12.5°C 26.0°F-3.3°C 33% Calm Calm -- 29.64 in1003.7 mb 0.00 in0.0 mm 0.00 in0.0 mm 0.00 in0.0 mm
08:41 PM 54.3°F12.4°C 25.8°F-3.4°C 33% Calm Calm -- 29.64 in1003.7 mb 0.00 in0.0 mm 0.00 in0.0 mm 0.00 in0.0 mm
08:42 PM 54.3°F12.4°C 25.8°F-3.4°C 33% Calm Calm -- 29.64 in1003.7 mb 0.00 in0.0 mm 0.00 in0.0 mm 0.00 in0.0 mm
08:43 PM 54.3°F12.4°C 25.8°F-3.4°C 33% Calm Calm -- 29.64 in1003.7 mb 0.00 in0.0 mm 0.00 in0.0 mm 0.00 in0.0 mm
08:44 PM 54.3°F12.4°C 25.8°F-3.4°C 33% Calm Calm -- 29.64 in1003.7 mb 0.00 in0.0 mm 0.00 in0.0 mm 0.00 in0.0 mm
08:45 PM 54.1°F12.3°C 25.6°F-3.6°C 33% Calm Calm 1.0 mph1.6 kmh 29.64 in1003.7 mb 0.00 in0.0 mm 0.00 in0.0 mm 0.00 in0.0 mm
08:46 PM 54.3°F12.4°C 25.8°F-3.4°C 33% Calm Calm 1.0 mph1.6 kmh 29.64 in1003.7 mb 0.00 in0.0 mm 0.00 in0.0 mm 0.00 in0.0 mm
08:47 PM 54.3°F12.4°C 25.8°F-3.4°C 33% Calm Calm 1.0 mph1.6 kmh 29.64 in1003.7 mb 0.00 in0.0 mm 0.00 in0.0 mm 0.00 in0.0 mm
08:48 PM 54.3°F12.4°C 25.8°F-3.4°C 33% Calm Calm 2.0 mph3.2 kmh 29.64 in1003.7 mb 0.00 in0.0 mm 0.00 in0.0 mm 0.00 in0.0 mm
08:49 PM 54.3°F12.4°C 25.8°F-3.4°C 33% Calm Calm 2.0 mph3.2 kmh 29.64 in1003.7 mb 0.00 in0.0 mm 0.00 in0.0 mm 0.00 in0.0 mm
08:50 PM 54.3°F12.4°C 25.8°F-3.4°C 33% Calm Calm 2.0 mph3.2 kmh 29.64 in1003.7 mb 0.00 in0.0 mm 0.00 in0.0 mm 0.00 in0.0 mm
08:51 PM 54.3°F12.4°C 25.8°F-3.4°C 33% Calm Calm 2.0 mph3.2 kmh 29.64 in1003.7 mb 0.00 in0.0 mm 0.00 in0.0 mm 0.00 in0.0 mm
08:52 PM 54.3°F12.4°C 25.1°F-3.8°C 32% Calm Calm 3.0 mph4.8 kmh 29.64 in1003.7 mb 0.00 in0.0 mm 0.00 in0.0 mm 0.00 in0.0 mm
08:53 PM 54.3°F12.4°C 25.1°F-3.8°C 32% Calm Calm 3.0 mph4.8 kmh 29.64 in1003.7 mb 0.00 in0.0 mm 0.00 in0.0 mm 0.00 in0.0 mm
08:54 PM 54.3°F12.4°C 25.1°F-3.8°C 32% Calm Calm 3.0 mph4.8 kmh 29.64 in1003.7 mb 0.00 in0.0 mm 0.00 in0.0 mm 0.00 in0.0 mm
08:55 PM 54.3°F12.4°C 25.1°F-3.8°C 32% Calm Calm 3.0 mph4.8 kmh 29.64 in1003.7 mb 0.00 in0.0 mm 0.00 in0.0 mm 0.00 in0.0 mm
08:56 PM 54.3°F12.4°C 25.1°F-3.8°C 32% Calm Calm 3.0 mph4.8 kmh 29.64 in1003.7 mb 0.00 in0.0 mm 0.00 in0.0 mm 0.00 in0.0 mm
08:57 PM 54.3°F12.4°C 25.1°F-3.8°C 32% Calm Calm 3.0 mph4.8 kmh 29.64 in1003.7 mb 0.00 in0.0 mm 0.00 in0.0 mm 0.00 in0.0 mm
08:58 PM 54.3°F12.4°C 25.1°F-3.8°C 32% 1.0 mph SE1.6 kmh SE 3.0 mph4.8 kmh 29.64 in1003.7 mb 0.00 in0.0 mm 0.00 in0.0 mm 0.00 in0.0 mm
08:59 PM 54.3°F12.4°C 25.1°F-3.8°C 32% 1.0 mph ESE1.6 kmh ESE 3.0 mph4.8 kmh 29.64 in1003.7 mb 0.00 in0.0 mm 0.00 in0.0 mm 0.00 in0.0 mm
09:00 PM 54.3°F12.4°C 25.1°F-3.8°C 32% 1.0 mph ESE1.6 kmh ESE 3.0 mph4.8 kmh 29.64 in1003.7 mb 0.00 in0.0 mm 0.00 in0.0 mm 0.00 in0.0 mm
09:01 PM 54.3°F12.4°C 25.1°F-3.8°C 32% 1.0 mph SE1.6 kmh SE 3.0 mph4.8 kmh 29.64 in1003.7 mb 0.00 in0.0 mm 0.00 in0.0 mm 0.00 in0.0 mm
09:02 PM 54.3°F12.4°C 25.1°F-3.8°C 32% 1.0 mph SE1.6 kmh SE 3.0 mph4.8 kmh 29.64 in1003.7 mb 0.00 in0.0 mm 0.00 in0.0 mm 0.00 in0.0 mm
09:03 PM 54.5°F12.5°C 25.2°F-3.8°C 32% 1.0 mph SE1.6 kmh SE 3.0 mph4.8 kmh 29.64 in1003.7 mb 0.00 in0.0 mm 0.00 in0.0 mm 0.00 in0.0 mm
09:04 PM 54.3°F12.4°C 25.1°F-3.8°C 32% 1.0 mph SE1.6 kmh SE 3.0 mph4.8 kmh 29.64 in1003.7 mb 0.00 in0.0 mm 0.00 in0.0 mm 0.00 in0.0 mm
09:05 PM 54.3°F12.4°C 25.1°F-3.8°C 32% 1.0 mph ESE1.6 kmh ESE 3.0 mph4.8 kmh 29.64 in1003.7 mb 0.00 in0.0 mm 0.00 in0.0 mm 0.00 in0.0 mm
09:06 PM 54.3°F12.4°C 25.1°F-3.8°C 32% 1.0 mph ESE1.6 kmh ESE 3.0 mph4.8 kmh 29.64 in1003.7 mb 0.00 in0.0 mm 0.00 in0.0 mm 0.00 in0.0 mm
09:07 PM 54.1°F12.3°C 24.9°F-3.9°C 32% 1.0 mph ESE1.6 kmh ESE 3.0 mph4.8 kmh 29.64 in1003.7 mb 0.00 in0.0 mm 0.00 in0.0 mm 0.00 in0.0 mm
09:08 PM 54.1°F12.3°C 24.9°F-3.9°C 32% 1.0 mph ESE1.6 kmh ESE 3.0 mph4.8 kmh 29.64 in1003.7 mb 0.00 in0.0 mm 0.00 in0.0 mm 0.00 in0.0 mm
09:09 PM 54.0°F12.2°C 24.7°F-4.1°C 32% 1.0 mph ESE1.6 kmh ESE 3.0 mph4.8 kmh 29.64 in1003.7 mb 0.00 in0.0 mm 0.00 in0.0 mm 0.00 in0.0 mm
09:10 PM 54.0°F12.2°C 25.5°F-3.6°C 33% 1.0 mph ESE1.6 kmh ESE 3.0 mph4.8 kmh 29.64 in1003.7 mb 0.00 in0.0 mm 0.00 in0.0 mm 0.00 in0.0 mm
09:11 PM 53.8°F12.1°C 25.3°F-3.7°C 33% 1.0 mph ESE1.6 kmh ESE 3.0 mph4.8 kmh 29.64 in1003.7 mb 0.00 in0.0 mm 0.00 in0.0 mm 0.00 in0.0 mm
09:12 PM 53.8°F12.1°C 25.3°F-3.7°C 33% 1.0 mph ESE1.6 kmh ESE 3.0 mph4.8 kmh 29.64 in1003.7 mb 0.00 in0.0 mm 0.00 in0.0 mm 0.00 in0.0 mm
09:13 PM 53.8°F12.1°C 25.3°F-3.7°C 33% 1.0 mph ESE1.6 kmh ESE 3.0 mph4.8 kmh 29.64 in1003.7 mb 0.00 in0.0 mm 0.00 in0.0 mm 0.00 in0.0 mm
09:14 PM 53.8°F12.1°C 25.3°F-3.7°C 33% 1.0 mph ESE1.6 kmh ESE 3.0 mph4.8 kmh 29.64 in1003.7 mb 0.00 in0.0 mm 0.00 in0.0 mm 0.00 in0.0 mm
09:15 PM 53.8°F12.1°C 24.6°F-4.1°C 32% 1.0 mph ESE1.6 kmh ESE 3.0 mph4.8 kmh 29.64 in1003.7 mb 0.00 in0.0 mm 0.00 in0.0 mm 0.00 in0.0 mm
09:16 PM 54.0°F12.2°C 24.7°F-4.1°C 32% 1.0 mph SE1.6 kmh SE 4.0 mph6.4 kmh 29.64 in1003.7 mb 0.00 in0.0 mm 0.00 in0.0 mm 0.00 in0.0 mm
09:17 PM 54.0°F12.2°C 24.7°F-4.1°C 32% 1.0 mph SE1.6 kmh SE 4.0 mph6.4 kmh 29.64 in1003.7 mb 0.00 in0.0 mm 0.00 in0.0 mm 0.00 in0.0 mm
09:18 PM 54.1°F12.3°C 24.9°F-3.9°C 32% 1.0 mph SE1.6 kmh SE 4.0 mph6.4 kmh 29.64 in1003.7 mb 0.00 in0.0 mm 0.00 in0.0 mm 0.00 in0.0 mm
09:19 PM 54.1°F12.3°C 24.9°F-3.9°C 32% 1.0 mph SE1.6 kmh SE 4.0 mph6.4 kmh 29.64 in1003.7 mb 0.00 in0.0 mm 0.00 in0.0 mm 0.00 in0.0 mm
09:20 PM 54.1°F12.3°C 24.9°F-3.9°C 32% 1.0 mph SE1.6 kmh SE 4.0 mph6.4 kmh 29.64 in1003.7 mb 0.00 in0.0 mm 0.00 in0.0 mm 0.00 in0.0 mm
09:21 PM 54.1°F12.3°C 24.9°F-3.9°C 32% 1.0 mph SE1.6 kmh SE 4.0 mph6.4 kmh 29.64 in1003.7 mb 0.00 in0.0 mm 0.00 in0.0 mm 0.00 in0.0 mm
09:22 PM 54.0°F12.2°C 24.7°F-4.1°C 32% 1.0 mph SE1.6 kmh SE 4.0 mph6.4 kmh 29.64 in1003.7 mb 0.00 in0.0 mm 0.00 in0.0 mm 0.00 in0.0 mm
09:23 PM 54.0°F12.2°C 25.5°F-3.6°C 33% 1.0 mph SE1.6 kmh SE 4.0 mph6.4 kmh 29.64 in1003.7 mb 0.00 in0.0 mm 0.00 in0.0 mm 0.00 in0.0 mm
09:24 PM 53.8°F12.1°C 25.3°F-3.7°C 33% 1.0 mph SE1.6 kmh SE 4.0 mph6.4 kmh 29.64 in1003.7 mb 0.00 in0.0 mm 0.00 in0.0 mm 0.00 in0.0 mm
09:25 PM 53.8°F12.1°C 25.3°F-3.7°C 33% 2.0 mph SSE3.2 kmh SSE 4.0 mph6.4 kmh 29.64 in1003.7 mb 0.00 in0.0 mm 0.00 in0.0 mm 0.00 in0.0 mm
09:26 PM 53.6°F12.0°C 25.2°F-3.8°C 33% 2.0 mph SSE3.2 kmh SSE 4.0 mph6.4 kmh 29.64 in1003.7 mb 0.00 in0.0 mm 0.00 in0.0 mm 0.00 in0.0 mm
09:27 PM 53.4°F11.9°C 25.0°F-3.9°C 33% 2.0 mph SSE3.2 kmh SSE 4.0 mph6.4 kmh 29.64 in1003.7 mb 0.00 in0.0 mm 0.00 in0.0 mm 0.00 in0.0 mm
09:28 PM 53.4°F11.9°C 25.0°F-3.9°C 33% 2.0 mph SSE3.2 kmh SSE 4.0 mph6.4 kmh 29.64 in1003.7 mb 0.00 in0.0 mm 0.00 in0.0 mm 0.00 in0.0 mm
09:29 PM 53.2°F11.8°C 25.6°F-3.6°C 34% 2.0 mph S3.2 kmh S 4.0 mph6.4 kmh 29.64 in1003.7 mb 0.00 in0.0 mm 0.00 in0.0 mm 0.00 in0.0 mm
09:30 PM 53.2°F11.8°C 25.6°F-3.6°C 34% 2.0 mph S3.2 kmh S 4.0 mph6.4 kmh 29.64 in1003.7 mb 0.00 in0.0 mm 0.00 in0.0 mm 0.00 in0.0 mm
09:31 PM 53.2°F11.8°C 25.6°F-3.6°C 34% 2.0 mph S3.2 kmh S 4.0 mph6.4 kmh 29.64 in1003.7 mb 0.00 in0.0 mm 0.00 in0.0 mm 0.00 in0.0 mm
09:32 PM 53.2°F11.8°C 25.6°F-3.6°C 34% 1.0 mph S1.6 kmh S 4.0 mph6.4 kmh 29.64 in1003.7 mb 0.00 in0.0 mm 0.00 in0.0 mm 0.00 in0.0 mm
09:33 PM 53.1°F11.7°C 24.7°F-4.1°C 33% 1.0 mph S1.6 kmh S 5.0 mph8.0 kmh 29.64 in1003.7 mb 0.00 in0.0 mm 0.00 in0.0 mm 0.00 in0.0 mm
09:34 PM 53.1°F11.7°C 25.4°F-3.7°C 34% 1.0 mph S1.6 kmh S 5.0 mph8.0 kmh 29.64 in1003.7 mb 0.00 in0.0 mm 0.00 in0.0 mm 0.00 in0.0 mm
09:35 PM 53.1°F11.7°C 25.4°F-3.7°C 34% 1.0 mph S1.6 kmh S 5.0 mph8.0 kmh 29.64 in1003.7 mb 0.00 in0.0 mm 0.00 in0.0 mm 0.00 in0.0 mm
09:36 PM 53.1°F11.7°C 25.4°F-3.7°C 34% 1.0 mph S1.6 kmh S 5.0 mph8.0 kmh 29.64 in1003.7 mb 0.00 in0.0 mm 0.00 in0.0 mm 0.00 in0.0 mm
09:37 PM 53.1°F11.7°C 25.4°F-3.7°C 34% 2.0 mph S3.2 kmh S 5.0 mph8.0 kmh 29.64 in1003.7 mb 0.00 in0.0 mm 0.00 in0.0 mm 0.00 in0.0 mm
09:38 PM 53.1°F11.7°C 25.4°F-3.7°C 34% 2.0 mph S3.2 kmh S 5.0 mph8.0 kmh 29.64 in1003.7 mb 0.00 in0.0 mm 0.00 in0.0 mm 0.00 in0.0 mm
09:39 PM 53.1°F11.7°C 25.4°F-3.7°C 34% 2.0 mph S3.2 kmh S 6.0 mph9.7 kmh 29.64 in1003.7 mb 0.00 in0.0 mm 0.00 in0.0 mm 0.00 in0.0 mm
09:40 PM 53.1°F11.7°C 24.7°F-4.1°C 33% 2.0 mph S3.2 kmh S 6.0 mph9.7 kmh 29.64 in1003.7 mb 0.00 in0.0 mm 0.00 in0.0 mm 0.00 in0.0 mm
09:41 PM 53.1°F11.7°C 24.7°F-4.1°C 33% 2.0 mph S3.2 kmh S 6.0 mph9.7 kmh 29.64 in1003.7 mb 0.00 in0.0 mm 0.00 in0.0 mm 0.00 in0.0 mm
09:42 PM 53.1°F11.7°C 25.4°F-3.7°C 34% 2.0 mph S3.2 kmh S 6.0 mph9.7 kmh 29.64 in1003.7 mb 0.00 in0.0 mm 0.00 in0.0 mm 0.00 in0.0 mm
09:43 PM 53.1°F11.7°C 24.7°F-4.1°C 33% 2.0 mph S3.2 kmh S 6.0 mph9.7 kmh 29.64 in1003.7 mb 0.00 in0.0 mm 0.00 in0.0 mm 0.00 in0.0 mm
09:44 PM 53.1°F11.7°C 24.7°F-4.1°C 33% 2.0 mph S3.2 kmh S 6.0 mph9.7 kmh 29.64 in1003.7 mb 0.00 in0.0 mm 0.00 in0.0 mm 0.00 in0.0 mm
09:45 PM 53.1°F11.7°C 24.7°F-4.1°C 33% 2.0 mph S3.2 kmh S 6.0 mph9.7 kmh 29.64 in1003.7 mb 0.00 in0.0 mm 0.00 in0.0 mm 0.00 in0.0 mm
09:46 PM 53.1°F11.7°C 24.7°F-4.1°C 33% 2.0 mph S3.2 kmh S 6.0 mph9.7 kmh 29.64 in1003.7 mb 0.00 in0.0 mm 0.00 in0.0 mm 0.00 in0.0 mm
09:47 PM 53.1°F11.7°C 24.7°F-4.1°C 33% 3.0 mph S4.8 kmh S 6.0 mph9.7 kmh 29.64 in1003.7 mb 0.00 in0.0 mm 0.00 in0.0 mm 0.00 in0.0 mm
09:48 PM 53.1°F11.7°C 24.7°F-4.1°C 33% 3.0 mph S4.8 kmh S 6.0 mph9.7 kmh 29.64 in1003.7 mb 0.00 in0.0 mm 0.00 in0.0 mm 0.00 in0.0 mm
09:49 PM 53.1°F11.7°C 24.7°F-4.1°C 33% 3.0 mph S4.8 kmh S 6.0 mph9.7 kmh 29.64 in1003.7 mb 0.00 in0.0 mm 0.00 in0.0 mm 0.00 in0.0 mm
09:50 PM 53.1°F11.7°C 23.9°F-4.5°C 32% 3.0 mph S4.8 kmh S 6.0 mph9.7 kmh 29.64 in1003.7 mb 0.00 in0.0 mm 0.00 in0.0 mm 0.00 in0.0 mm
09:51 PM 53.1°F11.7°C 23.9°F-4.5°C 32% 3.0 mph S4.8 kmh S 5.0 mph8.0 kmh 29.64 in1003.7 mb 0.00 in0.0 mm 0.00 in0.0 mm 0.00 in0.0 mm
09:52 PM 53.2°F11.8°C 24.1°F-4.4°C 32% 3.0 mph S4.8 kmh S 5.0 mph8.0 kmh 29.64 in1003.7 mb 0.00 in0.0 mm 0.00 in0.0 mm 0.00 in0.0 mm
09:53 PM 53.2°F11.8°C 24.1°F-4.4°C 32% 3.0 mph S4.8 kmh S 5.0 mph8.0 kmh 29.64 in1003.7 mb 0.00 in0.0 mm 0.00 in0.0 mm 0.00 in0.0 mm
09:54 PM 53.2°F11.8°C 24.1°F-4.4°C 32% 3.0 mph S4.8 kmh S 5.0 mph8.0 kmh 29.64 in1003.7 mb 0.00 in0.0 mm 0.00 in0.0 mm 0.00 in0.0 mm
09:55 PM 53.2°F11.8°C 24.1°F-4.4°C 32% 3.0 mph S4.8 kmh S 5.0 mph8.0 kmh 29.64 in1003.7 mb 0.00 in0.0 mm 0.00 in0.0 mm 0.00 in0.0 mm
09:56 PM 53.2°F11.8°C 24.1°F-4.4°C 32% 3.0 mph S4.8 kmh S 5.0 mph8.0 kmh 29.64 in1003.7 mb 0.00 in0.0 mm 0.00 in0.0 mm 0.00 in0.0 mm
09:57 PM 53.2°F11.8°C 24.1°F-4.4°C 32% 3.0 mph S4.8 kmh S 5.0 mph8.0 kmh 29.64 in1003.7 mb 0.00 in0.0 mm 0.00 in0.0 mm 0.00 in0.0 mm
09:58 PM 53.2°F11.8°C 24.1°F-4.4°C 32% 3.0 mph S4.8 kmh S 5.0 mph8.0 kmh 29.64 in1003.7 mb 0.00 in0.0 mm 0.00 in0.0 mm 0.00 in0.0 mm
09:59 PM 53.2°F11.8°C 24.1°F-4.4°C 32% 3.0 mph S4.8 kmh S 5.0 mph8.0 kmh 29.64 in1003.7 mb 0.00 in0.0 mm 0.00 in0.0 mm 0.00 in0.0 mm
10:00 PM 53.2°F11.8°C 24.1°F-4.4°C 32% 3.0 mph S4.8 kmh S 5.0 mph8.0 kmh 29.64 in1003.7 mb 0.00 in0.0 mm 0.00 in0.0 mm 0.00 in0.0 mm
10:01 PM 53.2°F11.8°C 24.1°F-4.4°C 32% 3.0 mph S4.8 kmh S 5.0 mph8.0 kmh 29.64 in1003.7 mb 0.00 in0.0 mm 0.00 in0.0 mm 0.00 in0.0 mm
10:02 PM 53.2°F11.8°C 24.1°F-4.4°C 32% 3.0 mph S4.8 kmh S 5.0 mph8.0 kmh 29.64 in1003.7 mb 0.00 in0.0 mm 0.00 in0.0 mm 0.00 in0.0 mm
10:03 PM 53.2°F11.8°C 24.1°F-4.4°C 32% 3.0 mph S4.8 kmh S 5.0 mph8.0 kmh 29.64 in1003.7 mb 0.00 in0.0 mm 0.00 in0.0 mm 0.00 in0.0 mm
10:04 PM 53.2°F11.8°C 24.1°F-4.4°C 32% 3.0 mph S4.8 kmh S 5.0 mph8.0 kmh 29.64 in1003.7 mb 0.00 in0.0 mm 0.00 in0.0 mm 0.00 in0.0 mm
10:05 PM 53.2°F11.8°C 24.1°F-4.4°C 32% 3.0 mph S4.8 kmh S 5.0 mph8.0 kmh 29.64 in1003.7 mb 0.00 in0.0 mm 0.00 in0.0 mm 0.00 in0.0 mm
10:06 PM 53.2°F11.8°C 24.1°F-4.4°C 32% 3.0 mph S4.8 kmh S 5.0 mph8.0 kmh 29.64 in1003.7 mb 0.00 in0.0 mm 0.00 in0.0 mm 0.00 in0.0 mm
10:07 PM 53.2°F11.8°C 24.1°F-4.4°C 32% 3.0 mph S4.8 kmh S 5.0 mph8.0 kmh 29.64 in1003.7 mb 0.00 in0.0 mm 0.00 in0.0 mm 0.00 in0.0 mm
10:08 PM 53.2°F11.8°C 23.3°F-4.8°C 31% 3.0 mph S4.8 kmh S 5.0 mph8.0 kmh 29.64 in1003.7 mb 0.00 in0.0 mm 0.00 in0.0 mm 0.00 in0.0 mm
10:09 PM 53.2°F11.8°C 24.1°F-4.4°C 32% 3.0 mph S4.8 kmh S 5.0 mph8.0 kmh 29.64 in1003.7 mb 0.00 in0.0 mm 0.00 in0.0 mm 0.00 in0.0 mm
10:10 PM 53.2°F11.8°C 24.1°F-4.4°C 32% 3.0 mph S4.8 kmh S 5.0 mph8.0 kmh 29.64 in1003.7 mb 0.00 in0.0 mm 0.00 in0.0 mm 0.00 in0.0 mm
10:11 PM 53.2°F11.8°C 23.3°F-4.8°C 31% 3.0 mph S4.8 kmh S 5.0 mph8.0 kmh 29.64 in1003.7 mb 0.00 in0.0 mm 0.00 in0.0 mm 0.00 in0.0 mm
10:12 PM 53.2°F11.8°C 23.3°F-4.8°C 31% 3.0 mph S4.8 kmh S 5.0 mph8.0 kmh 29.64 in1003.7 mb 0.00 in0.0 mm 0.00 in0.0 mm 0.00 in0.0 mm
10:13 PM 53.2°F11.8°C 23.3°F-4.8°C 31% 3.0 mph S4.8 kmh S 4.0 mph6.4 kmh 29.64 in1003.7 mb 0.00 in0.0 mm 0.00 in0.0 mm 0.00 in0.0 mm
10:14 PM 53.2°F11.8°C 23.3°F-4.8°C 31% 3.0 mph S4.8 kmh S 4.0 mph6.4 kmh 29.64 in1003.7 mb 0.00 in0.0 mm 0.00 in0.0 mm 0.00 in0.0 mm
10:15 PM 53.4°F11.9°C 23.5°F-4.7°C 31% 3.0 mph S4.8 kmh S 4.0 mph6.4 kmh 29.64 in1003.7 mb 0.00 in0.0 mm 0.00 in0.0 mm 0.00 in0.0 mm
10:16 PM 53.4°F11.9°C 23.5°F-4.7°C 31% 3.0 mph S4.8 kmh S 4.0 mph6.4 kmh 29.64 in1003.7 mb 0.00 in0.0 mm 0.00 in0.0 mm 0.00 in0.0 mm
10:17 PM 53.4°F11.9°C 23.5°F-4.7°C 31% 3.0 mph S4.8 kmh S 4.0 mph6.4 kmh 29.64 in1003.7 mb 0.00 in0.0 mm 0.00 in0.0 mm 0.00 in0.0 mm
10:18 PM 53.4°F11.9°C 23.5°F-4.7°C 31% 3.0 mph S4.8 kmh S 4.0 mph6.4 kmh 29.64 in1003.7 mb 0.00 in0.0 mm 0.00 in0.0 mm 0.00 in0.0 mm
10:19 PM 53.4°F11.9°C 23.5°F-4.7°C 31% 2.0 mph S3.2 kmh S 4.0 mph6.4 kmh 29.64 in1003.7 mb 0.00 in0.0 mm 0.00 in0.0 mm 0.00 in0.0 mm
10:20 PM 53.4°F11.9°C 23.5°F-4.7°C 31% 2.0 mph S3.2 kmh S 4.0 mph6.4 kmh 29.64 in1003.7 mb 0.00 in0.0 mm 0.00 in0.0 mm 0.00 in0.0 mm
10:21 PM 53.4°F11.9°C 23.5°F-4.7°C 31% 2.0 mph S3.2 kmh S 4.0 mph6.4 kmh 29.64 in1003.7 mb 0.00 in0.0 mm 0.00 in0.0 mm 0.00 in0.0 mm
10:22 PM 53.4°F11.9°C 23.5°F-4.7°C 31% 2.0 mph S3.2 kmh S 4.0 mph6.4 kmh 29.64 in1003.7 mb 0.00 in0.0 mm 0.00 in0.0 mm 0.00 in0.0 mm
10:23 PM 53.4°F11.9°C 23.5°F-4.7°C 31% 2.0 mph S3.2 kmh S 4.0 mph6.4 kmh 29.64 in1003.7 mb 0.00 in0.0 mm 0.00 in0.0 mm 0.00 in0.0 mm
10:24 PM 53.4°F11.9°C 23.5°F-4.7°C 31% 2.0 mph SSW3.2 kmh SSW 4.0 mph6.4 kmh 29.64 in1003.7 mb 0.00 in0.0 mm 0.00 in0.0 mm 0.00 in0.0 mm
10:25 PM 53.4°F11.9°C 23.5°F-4.7°C 31% 2.0 mph SSW3.2 kmh SSW 5.0 mph8.0 kmh 29.64 in1003.7 mb 0.00 in0.0 mm 0.00 in0.0 mm 0.00 in0.0 mm
10:26 PM 53.4°F11.9°C 23.5°F-4.7°C 31% 2.0 mph SSW3.2 kmh SSW 5.0 mph8.0 kmh 29.64 in1003.7 mb 0.00 in0.0 mm 0.00 in0.0 mm 0.00 in0.0 mm
10:27 PM 53.4°F11.9°C 23.5°F-4.7°C 31% 2.0 mph SSW3.2 kmh SSW 5.0 mph8.0 kmh 29.64 in1003.7 mb 0.00 in0.0 mm 0.00 in0.0 mm 0.00 in0.0 mm
10:28 PM 53.4°F11.9°C 22.7°F-5.2°C 30% 2.0 mph SSW3.2 kmh SSW 5.0 mph8.0 kmh 29.64 in1003.7 mb 0.00 in0.0 mm 0.00 in0.0 mm 0.00 in0.0 mm
10:29 PM 53.6°F12.0°C 23.7°F-4.6°C 31% 2.0 mph SSW3.2 kmh SSW 5.0 mph8.0 kmh 29.64 in1003.7 mb 0.00 in0.0 mm 0.00 in0.0 mm 0.00 in0.0 mm
10:30 PM 53.6°F12.0°C 23.7°F-4.6°C 31% 2.0 mph S3.2 kmh S 5.0 mph8.0 kmh 29.64 in1003.7 mb 0.00 in0.0 mm 0.00 in0.0 mm 0.00 in0.0 mm
10:31 PM 53.4°F11.9°C 23.5°F-4.7°C 31% 2.0 mph S3.2 kmh S 5.0 mph8.0 kmh 29.64 in1003.7 mb 0.00 in0.0 mm 0.00 in0.0 mm 0.00 in0.0 mm
10:32 PM 53.4°F11.9°C 23.5°F-4.7°C 31% 2.0 mph S3.2 kmh S 5.0 mph8.0 kmh 29.64 in1003.7 mb 0.00 in0.0 mm 0.00 in0.0 mm 0.00 in0.0 mm
10:33 PM 53.4°F11.9°C 23.5°F-4.7°C 31% 2.0 mph S3.2 kmh S 5.0 mph8.0 kmh 29.64 in1003.7 mb 0.00 in0.0 mm 0.00 in0.0 mm 0.00 in0.0 mm
10:34 PM 53.4°F11.9°C 23.5°F-4.7°C 31% 2.0 mph S3.2 kmh S 5.0 mph8.0 kmh 29.64 in1003.7 mb 0.00 in0.0 mm 0.00 in0.0 mm 0.00 in0.0 mm
10:35 PM 53.4°F11.9°C 23.5°F-4.7°C 31% 2.0 mph S3.2 kmh S 5.0 mph8.0 kmh 29.64 in1003.7 mb 0.00 in0.0 mm 0.00 in0.0 mm 0.00 in0.0 mm
10:36 PM 53.2°F11.8°C 23.3°F-4.8°C 31% 2.0 mph S3.2 kmh S 5.0 mph8.0 kmh 29.64 in1003.7 mb 0.00 in0.0 mm 0.00 in0.0 mm 0.00 in0.0 mm
10:37 PM 53.2°F11.8°C 23.3°F-4.8°C 31% 2.0 mph S3.2 kmh S 5.0 mph8.0 kmh 29.64 in1003.7 mb 0.00 in0.0 mm 0.00 in0.0 mm 0.00 in0.0 mm
10:38 PM 53.2°F11.8°C 22.6°F-5.2°C 30% 2.0 mph S3.2 kmh S 5.0 mph8.0 kmh 29.64 in1003.7 mb 0.00 in0.0 mm 0.00 in0.0 mm 0.00 in0.0 mm
10:39 PM 53.2°F11.8°C 23.3°F-4.8°C 31% 2.0 mph S3.2 kmh S 5.0 mph8.0 kmh 29.64 in1003.7 mb 0.00 in0.0 mm 0.00 in0.0 mm 0.00 in0.0 mm
10:40 PM 53.2°F11.8°C 22.6°F-5.2°C 30% 2.0 mph S3.2 kmh S 5.0 mph8.0 kmh 29.64 in1003.7 mb 0.00 in0.0 mm 0.00 in0.0 mm 0.00 in0.0 mm
10:41 PM 53.4°F11.9°C 22.7°F-5.2°C 30% 2.0 mph SSW3.2 kmh SSW 5.0 mph8.0 kmh 29.64 in1003.7 mb 0.00 in0.0 mm 0.00 in0.0 mm 0.00 in0.0 mm
10:42 PM 53.4°F11.9°C 22.7°F-5.2°C 30% 2.0 mph SSW3.2 kmh SSW 5.0 mph8.0 kmh 29.64 in1003.7 mb 0.00 in0.0 mm 0.00 in0.0 mm 0.00 in0.0 mm
10:43 PM 53.4°F11.9°C 22.7°F-5.2°C 30% 2.0 mph SSW3.2 kmh SSW 5.0 mph8.0 kmh 29.64 in1003.7 mb 0.00 in0.0 mm 0.00 in0.0 mm 0.00 in0.0 mm
10:44 PM 53.4°F11.9°C 22.7°F-5.2°C 30% 2.0 mph SSW3.2 kmh SSW 5.0 mph8.0 kmh 29.64 in1003.7 mb 0.00 in0.0 mm 0.00 in0.0 mm 0.00 in0.0 mm
10:45 PM 53.4°F11.9°C 22.7°F-5.2°C 30% 2.0 mph SSW3.2 kmh SSW 6.0 mph9.7 kmh 29.64 in1003.7 mb 0.00 in0.0 mm 0.00 in0.0 mm 0.00 in0.0 mm
10:46 PM 53.4°F11.9°C 22.7°F-5.2°C 30% 2.0 mph SSW3.2 kmh SSW 6.0 mph9.7 kmh 29.64 in1003.7 mb 0.00 in0.0 mm 0.00 in0.0 mm 0.00 in0.0 mm
10:47 PM 53.4°F11.9°C 22.7°F-5.2°C 30% 2.0 mph SSW3.2 kmh SSW 6.0 mph9.7 kmh 29.64 in1003.7 mb 0.00 in0.0 mm 0.00 in0.0 mm 0.00 in0.0 mm
10:48 PM 53.6°F12.0°C 22.1°F-5.5°C 29% 2.0 mph SSW3.2 kmh SSW 6.0 mph9.7 kmh 29.64 in1003.7 mb 0.00 in0.0 mm 0.00 in0.0 mm 0.00 in0.0 mm
10:49 PM 53.6°F12.0°C 22.1°F-5.5°C 29% 2.0 mph SSW3.2 kmh SSW 6.0 mph9.7 kmh 29.64 in1003.7 mb 0.00 in0.0 mm 0.00 in0.0 mm 0.00 in0.0 mm
10:50 PM 53.8°F12.1°C 22.2°F-5.4°C 29% 2.0 mph SSW3.2 kmh SSW 6.0 mph9.7 kmh 29.64 in1003.7 mb 0.00 in0.0 mm 0.00 in0.0 mm 0.00 in0.0 mm
10:51 PM 53.8°F12.1°C 22.2°F-5.4°C 29% 2.0 mph SSW3.2 kmh SSW 6.0 mph9.7 kmh 29.64 in1003.7 mb 0.00 in0.0 mm 0.00 in0.0 mm 0.00 in0.0 mm
10:52 PM 53.8°F12.1°C 22.2°F-5.4°C 29% 3.0 mph SSW4.8 kmh SSW 6.0 mph9.7 kmh 29.64 in1003.7 mb 0.00 in0.0 mm 0.00 in0.0 mm 0.00 in0.0 mm
10:53 PM 53.8°F12.1°C 23.0°F-5.0°C 30% 3.0 mph SSW4.8 kmh SSW 6.0 mph9.7 kmh 29.65 in1004.1 mb 0.00 in0.0 mm 0.00 in0.0 mm 0.00 in0.0 mm
10:54 PM 53.6°F12.0°C 22.9°F-5.1°C 30% 3.0 mph SSW4.8 kmh SSW 6.0 mph9.7 kmh 29.64 in1003.7 mb 0.00 in0.0 mm 0.00 in0.0 mm 0.00 in0.0 mm
10:55 PM 53.2°F11.8°C 23.3°F-4.8°C 31% 3.0 mph SSW4.8 kmh SSW 6.0 mph9.7 kmh 29.65 in1004.1 mb 0.00 in0.0 mm 0.00 in0.0 mm 0.00 in0.0 mm
10:56 PM 52.9°F11.6°C 23.0°F-5.0°C 31% 3.0 mph SSW4.8 kmh SSW 6.0 mph9.7 kmh 29.65 in1004.1 mb 0.00 in0.0 mm 0.00 in0.0 mm 0.00 in0.0 mm
10:57 PM 52.2°F11.2°C 23.2°F-4.9°C 32% 3.0 mph SSW4.8 kmh SSW 6.0 mph9.7 kmh 29.65 in1004.1 mb 0.00 in0.0 mm 0.00 in0.0 mm 0.00 in0.0 mm
10:58 PM 51.6°F10.9°C 23.4°F-4.8°C 33% 3.0 mph SW4.8 kmh SW 5.0 mph8.0 kmh 29.65 in1004.1 mb 0.00 in0.0 mm 0.00 in0.0 mm 0.00 in0.0 mm
10:59 PM 50.7°F10.4°C 22.6°F-5.2°C 33% 3.0 mph SW4.8 kmh SW 5.0 mph8.0 kmh 29.65 in1004.1 mb 0.00 in0.0 mm 0.00 in0.0 mm 0.00 in0.0 mm
11:00 PM 50.4°F10.2°C 23.0°F-5.0°C 34% 2.0 mph WSW3.2 kmh WSW 4.0 mph6.4 kmh 29.65 in1004.1 mb 0.00 in0.0 mm 0.00 in0.0 mm 0.00 in0.0 mm
11:01 PM 49.6°F9.8°C 23.1°F-4.9°C 35% 2.0 mph WSW3.2 kmh WSW 4.0 mph6.4 kmh 29.65 in1004.1 mb 0.00 in0.0 mm 0.00 in0.0 mm 0.00 in0.0 mm
11:02 PM 49.1°F9.5°C 22.6°F-5.2°C 35% 2.0 mph WSW3.2 kmh WSW 4.0 mph6.4 kmh 29.65 in1004.1 mb 0.00 in0.0 mm 0.00 in0.0 mm 0.00 in0.0 mm
11:03 PM 48.7°F9.3°C 22.9°F-5.1°C 36% 2.0 mph WSW3.2 kmh WSW 4.0 mph6.4 kmh 29.65 in1004.1 mb 0.00 in0.0 mm 0.00 in0.0 mm 0.00 in0.0 mm
11:04 PM 48.4°F9.1°C 22.6°F-5.2°C 36% 2.0 mph WSW3.2 kmh WSW 4.0 mph6.4 kmh 29.65 in1004.1 mb 0.00 in0.0 mm 0.00 in0.0 mm 0.00 in0.0 mm
11:05 PM 48.2°F9.0°C 22.5°F-5.3°C 36% 2.0 mph WSW3.2 kmh WSW 4.0 mph6.4 kmh 29.65 in1004.1 mb 0.00 in0.0 mm 0.00 in0.0 mm 0.00 in0.0 mm
11:06 PM 47.8°F8.8°C 22.8°F-5.1°C 37% 1.0 mph WSW1.6 kmh WSW 4.0 mph6.4 kmh 29.65 in1004.1 mb 0.00 in0.0 mm 0.00 in0.0 mm 0.00 in0.0 mm
11:07 PM 47.8°F8.8°C 22.8°F-5.1°C 37% 1.0 mph WSW1.6 kmh WSW 4.0 mph6.4 kmh 29.65 in1004.1 mb 0.00 in0.0 mm 0.00 in0.0 mm 0.00 in0.0 mm
11:08 PM 47.7°F8.7°C 22.6°F-5.2°C 37% 1.0 mph WSW1.6 kmh WSW 4.0 mph6.4 kmh 29.65 in1004.1 mb 0.00 in0.0 mm 0.00 in0.0 mm 0.00 in0.0 mm
11:09 PM 47.5°F8.6°C 22.5°F-5.3°C 37% 1.0 mph WSW1.6 kmh WSW 3.0 mph4.8 kmh 29.65 in1004.1 mb 0.00 in0.0 mm 0.00 in0.0 mm 0.00 in0.0 mm
11:10 PM 47.5°F8.6°C 23.1°F-4.9°C 38% 1.0 mph WSW1.6 kmh WSW 2.0 mph3.2 kmh 29.65 in1004.1 mb 0.00 in0.0 mm 0.00 in0.0 mm 0.00 in0.0 mm
11:11 PM 47.3°F8.5°C 22.9°F-5.1°C 38% 1.0 mph 1.6 kmh -- 29.65 in1004.1 mb 0.00 in0.0 mm 0.00 in0.0 mm 0.00 in0.0 mm
11:12 PM 47.1°F8.4°C 22.8°F-5.1°C 38% 1.0 mph 1.6 kmh -- 29.65 in1004.1 mb 0.00 in0.0 mm 0.00 in0.0 mm 0.00 in0.0 mm
11:13 PM 47.1°F8.4°C 22.8°F-5.1°C 38% 1.0 mph 1.6 kmh -- 29.65 in1004.1 mb 0.00 in0.0 mm 0.00 in0.0 mm 0.00 in0.0 mm
11:14 PM 47.1°F8.4°C 22.8°F-5.1°C 38% Calm Calm -- 29.65 in1004.1 mb 0.00 in0.0 mm 0.00 in0.0 mm 0.00 in0.0 mm
11:15 PM 47.1°F8.4°C 22.8°F-5.1°C 38% Calm Calm -- 29.65 in1004.1 mb 0.00 in0.0 mm 0.00 in0.0 mm 0.00 in0.0 mm
11:16 PM 47.1°F8.4°C 22.8°F-5.1°C 38% Calm Calm -- 29.66 in1004.4 mb 0.00 in0.0 mm 0.00 in0.0 mm 0.00 in0.0 mm
11:17 PM 47.1°F8.4°C 22.8°F-5.1°C 38% Calm Calm -- 29.66 in1004.4 mb 0.00 in0.0 mm 0.00 in0.0 mm 0.00 in0.0 mm
11:18 PM 47.1°F8.4°C 22.8°F-5.1°C 38% Calm Calm -- 29.66 in1004.4 mb 0.00 in0.0 mm 0.00 in0.0 mm 0.00 in0.0 mm
11:19 PM 47.1°F8.4°C 22.8°F-5.1°C 38% Calm Calm -- 29.66 in1004.4 mb 0.00 in0.0 mm 0.00 in0.0 mm 0.00 in0.0 mm
11:20 PM 47.1°F8.4°C 22.8°F-5.1°C 38% Calm Calm -- 29.66 in1004.4 mb 0.00 in0.0 mm 0.00 in0.0 mm 0.00 in0.0 mm
11:21 PM 47.3°F8.5°C 22.9°F-5.1°C 38% Calm Calm -- 29.66 in1004.4 mb 0.00 in0.0 mm 0.00 in0.0 mm 0.00 in0.0 mm
11:22 PM 47.5°F8.6°C 23.1°F-4.9°C 38% Calm Calm -- 29.66 in1004.4 mb 0.00 in0.0 mm 0.00 in0.0 mm 0.00 in0.0 mm
11:23 PM 47.5°F8.6°C 23.1°F-4.9°C 38% Calm Calm -- 29.66 in1004.4 mb 0.00 in0.0 mm 0.00 in0.0 mm 0.00 in0.0 mm
11:24 PM 47.5°F8.6°C 23.1°F-4.9°C 38% Calm Calm -- 29.66 in1004.4 mb 0.00 in0.0 mm 0.00 in0.0 mm 0.00 in0.0 mm
11:25 PM 47.5°F8.6°C 23.1°F-4.9°C 38% Calm Calm -- 29.66 in1004.4 mb 0.00 in0.0 mm 0.00 in0.0 mm 0.00 in0.0 mm
11:26 PM 47.7°F8.7°C 23.3°F-4.8°C 38% Calm Calm -- 29.66 in1004.4 mb 0.00 in0.0 mm 0.00 in0.0 mm 0.00 in0.0 mm
11:27 PM 47.7°F8.7°C 23.3°F-4.8°C 38% Calm Calm -- 29.66 in1004.4 mb 0.00 in0.0 mm 0.00 in0.0 mm 0.00 in0.0 mm
11:28 PM 47.8°F8.8°C 23.4°F-4.8°C 38% Calm Calm -- 29.66 in1004.4 mb 0.00 in0.0 mm 0.00 in0.0 mm 0.00 in0.0 mm
11:29 PM 47.8°F8.8°C 23.4°F-4.8°C 38% Calm Calm -- 29.66 in1004.4 mb 0.00 in0.0 mm 0.00 in0.0 mm 0.00 in0.0 mm
11:30 PM 47.8°F8.8°C 23.4°F-4.8°C 38% Calm Calm -- 29.66 in1004.4 mb 0.00 in0.0 mm 0.00 in0.0 mm 0.00 in0.0 mm
11:31 PM 47.8°F8.8°C 23.4°F-4.8°C 38% Calm Calm -- 29.66 in1004.4 mb 0.00 in0.0 mm 0.00 in0.0 mm 0.00 in0.0 mm
11:32 PM 47.8°F8.8°C 23.4°F-4.8°C 38% Calm Calm -- 29.66 in1004.4 mb 0.00 in0.0 mm 0.00 in0.0 mm 0.00 in0.0 mm
11:33 PM 48.0°F8.9°C 23.6°F-4.7°C 38% Calm Calm -- 29.66 in1004.4 mb 0.00 in0.0 mm 0.00 in0.0 mm 0.00 in0.0 mm
11:34 PM 48.0°F8.9°C 23.6°F-4.7°C 38% Calm Calm -- 29.66 in1004.4 mb 0.00 in0.0 mm 0.00 in0.0 mm 0.00 in0.0 mm
11:35 PM 48.0°F8.9°C 23.6°F-4.7°C 38% Calm Calm -- 29.66 in1004.4 mb 0.00 in0.0 mm 0.00 in0.0 mm 0.00 in0.0 mm
11:36 PM 48.0°F8.9°C 23.6°F-4.7°C 38% Calm Calm -- 29.66 in1004.4 mb 0.00 in0.0 mm 0.00 in0.0 mm 0.00 in0.0 mm
11:37 PM 48.0°F8.9°C 23.6°F-4.7°C 38% Calm Calm -- 29.66 in1004.4 mb 0.00 in0.0 mm 0.00 in0.0 mm 0.00 in0.0 mm
11:38 PM 48.0°F8.9°C 23.6°F-4.7°C 38% Calm Calm -- 29.66 in1004.4 mb 0.00 in0.0 mm 0.00 in0.0 mm 0.00 in0.0 mm
11:39 PM 48.0°F8.9°C 23.6°F-4.7°C 38% Calm Calm -- 29.66 in1004.4 mb 0.00 in0.0 mm 0.00 in0.0 mm 0.00 in0.0 mm
11:40 PM 48.0°F8.9°C 23.6°F-4.7°C 38% Calm Calm -- 29.66 in1004.4 mb 0.00 in0.0 mm 0.00 in0.0 mm 0.00 in0.0 mm
11:41 PM 48.0°F8.9°C 23.6°F-4.7°C 38% Calm Calm -- 29.66 in1004.4 mb 0.00 in0.0 mm 0.00 in0.0 mm 0.00 in0.0 mm
11:42 PM 48.0°F8.9°C 23.6°F-4.7°C 38% Calm Calm -- 29.66 in1004.4 mb 0.00 in0.0 mm 0.00 in0.0 mm 0.00 in0.0 mm
11:43 PM 48.0°F8.9°C 23.6°F-4.7°C 38% Calm Calm -- 29.66 in1004.4 mb 0.00 in0.0 mm 0.00 in0.0 mm 0.00 in0.0 mm
11:44 PM 48.0°F8.9°C 23.6°F-4.7°C 38% Calm Calm -- 29.66 in1004.4 mb 0.00 in0.0 mm 0.00 in0.0 mm 0.00 in0.0 mm
11:45 PM 48.0°F8.9°C 24.2°F-4.3°C 39% Calm Calm -- 29.66 in1004.4 mb 0.00 in0.0 mm 0.00 in0.0 mm 0.00 in0.0 mm
11:46 PM 48.0°F8.9°C 24.2°F-4.3°C 39% Calm Calm -- 29.66 in1004.4 mb 0.00 in0.0 mm 0.00 in0.0 mm 0.00 in0.0 mm
11:47 PM 48.0°F8.9°C 24.2°F-4.3°C 39% Calm Calm -- 29.66 in1004.4 mb 0.00 in0.0 mm 0.00 in0.0 mm 0.00 in0.0 mm
11:48 PM 48.0°F8.9°C 24.2°F-4.3°C 39% Calm Calm -- 29.66 in1004.4 mb 0.00 in0.0 mm 0.00 in0.0 mm 0.00 in0.0 mm
11:49 PM 48.0°F8.9°C 24.2°F-4.3°C 39% Calm Calm -- 29.67 in1004.7 mb 0.00 in0.0 mm 0.00 in0.0 mm 0.00 in0.0 mm
11:50 PM 48.0°F8.9°C 24.2°F-4.3°C 39% Calm Calm -- 29.67 in1004.7 mb 0.00 in0.0 mm 0.00 in0.0 mm 0.00 in0.0 mm
11:51 PM 48.0°F8.9°C 24.2°F-4.3°C 39% Calm Calm -- 29.67 in1004.7 mb 0.00 in0.0 mm 0.00 in0.0 mm 0.00 in0.0 mm
11:52 PM 48.0°F8.9°C 24.2°F-4.3°C 39% Calm Calm -- 29.67 in1004.7 mb 0.00 in0.0 mm 0.00 in0.0 mm 0.00 in0.0 mm
11:53 PM 47.8°F8.8°C 24.0°F-4.4°C 39% Calm Calm -- 29.67 in1004.7 mb 0.00 in0.0 mm 0.00 in0.0 mm 0.00 in0.0 mm
11:54 PM 47.8°F8.8°C 24.0°F-4.4°C 39% Calm Calm -- 29.66 in1004.4 mb 0.00 in0.0 mm 0.00 in0.0 mm 0.00 in0.0 mm
11:55 PM 47.8°F8.8°C 24.0°F-4.4°C 39% Calm Calm -- 29.66 in1004.4 mb 0.00 in0.0 mm 0.00 in0.0 mm 0.00 in0.0 mm
11:56 PM 47.8°F8.8°C 24.0°F-4.4°C 39% Calm Calm -- 29.66 in1004.4 mb 0.00 in0.0 mm 0.00 in0.0 mm 0.00 in0.0 mm
11:57 PM 47.8°F8.8°C 24.0°F-4.4°C 39% Calm Calm -- 29.66 in1004.4 mb 0.00 in0.0 mm 0.00 in0.0 mm 0.00 in0.0 mm
11:58 PM 47.8°F8.8°C 24.0°F-4.4°C 39% Calm Calm -- 29.66 in1004.4 mb 0.00 in0.0 mm 0.00 in0.0 mm 0.00 in0.0 mm
11:59 PM 47.8°F8.8°C 24.0°F-4.4°C 39% Calm Calm -- 29.66 in1004.4 mb 0.00 in0.0 mm 0.00 in0.0 mm 0.00 in0.0 mm